<?xml version="1.0" encoding="UTF-8" standalone="no" ?><gpx xmlns="http://www.topografix.com/GPX/1/1" xmlns:gpxx="http://www.garmin.com/xmlschemas/GpxExtensions/v3" xmlns:gpxtrkx="http://www.garmin.com/xmlschemas/TrackStatsExtension/v1" xmlns:wptx1="http://www.garmin.com/xmlschemas/WaypointExtension/v1" xmlns:gpxtpx="http://www.garmin.com/xmlschemas/TrackPointExtension/v1" creator="GPSMAP 64st" version="1.1" xmlns:xsi="http://www.w3.org/2001/XMLSchema-instance" xsi:schemaLocation="http://www.topografix.com/GPX/1/1 http://www.topografix.com/GPX/1/1/gpx.xsd http://www.garmin.com/xmlschemas/GpxExtensions/v3 http://www8.garmin.com/xmlschemas/GpxExtensionsv3.xsd http://www.garmin.com/xmlschemas/TrackStatsExtension/v1 http://www8.garmin.com/xmlschemas/TrackStatsExtension.xsd http://www.garmin.com/xmlschemas/WaypointExtension/v1 http://www8.garmin.com/xmlschemas/WaypointExtensionv1.xsd http://www.garmin.com/xmlschemas/TrackPointExtension/v1 http://www.garmin.com/xmlschemas/TrackPointExtensionv1.xsd"><metadata><link href="http://www.garmin.com"><text>Garmin International</text></link><time>2026-09-03T01:04:19Z</time></metadata><trk><name>СЕРЁГА9-03 05:03:57</name><extensions><gpxx:TrackExtension><gpxx:DisplayColor>Yellow</gpxx:DisplayColor></gpxx:TrackExtension><gpxtrkx:TrackStatsExtension><gpxtrkx:Distance>12165</gpxtrkx:Distance><gpxtrkx:TotalElapsedTime>23611</gpxtrkx:TotalElapsedTime><gpxtrkx:MovingTime>20268</gpxtrkx:MovingTime><gpxtrkx:StoppedTime>2895</gpxtrkx:StoppedTime><gpxtrkx:MovingSpeed>1</gpxtrkx:MovingSpeed><gpxtrkx:MaxSpeed>2</gpxtrkx:MaxSpeed><gpxtrkx:MaxElevation>268</gpxtrkx:MaxElevation><gpxtrkx:MinElevation>40</gpxtrkx:MinElevation><gpxtrkx:Ascent>149</gpxtrkx:Ascent><gpxtrkx:Descent>457</gpxtrkx:Descent><gpxtrkx:AvgAscentRate>0</gpxtrkx:AvgAscentRate><gpxtrkx:MaxAscentRate>0</gpxtrkx:MaxAscentRate><gpxtrkx:AvgDescentRate>0</gpxtrkx:AvgDescentRate><gpxtrkx:MaxDescentRate>-3</gpxtrkx:MaxDescentRate></gpxtrkx:TrackStatsExtension></extensions><trkseg><trkpt lat="59.5686916821" lon="31.2505789194"><ele>267.98</ele><time>2026-09-02T18:30:48Z</time></trkpt><trkpt lat="59.5686268900" lon="31.2507090904"><ele>267.98</ele><time>2026-09-02T18:30:49Z</time></trkpt><trkpt lat="59.5682991575" lon="31.2512336299"><ele>267.52</ele><time>2026-09-02T18:31:04Z</time></trkpt><trkpt lat="59.5682666358" lon="31.2512755394"><ele>266.44</ele><time>2026-09-02T18:31:11Z</time></trkpt><trkpt lat="59.5682347845" lon="31.2515042815"><ele>265.35</ele><time>2026-09-02T18:31:29Z</time></trkpt><trkpt lat="59.5682538953" lon="31.2517343648"><ele>262.86</ele><time>2026-09-02T18:31:54Z</time></trkpt><trkpt lat="59.5682738442" lon="31.2518631108"><ele>260.66</ele><time>2026-09-02T18:32:08Z</time></trkpt><trkpt lat="59.5683049411" lon="31.2520449143"><ele>258.19</ele><time>2026-09-02T18:32:27Z</time></trkpt><trkpt lat="59.5683724992" lon="31.2522869837"><ele>255.92</ele><time>2026-09-02T18:32:46Z</time></trkpt><trkpt lat="59.5683989860" lon="31.2523272168"><ele>254.74</ele><time>2026-09-02T18:32:59Z</time></trkpt><trkpt lat="59.5684328489" lon="31.2521798629"><ele>252.69</ele><time>2026-09-02T18:33:19Z</time></trkpt><trkpt lat="59.5685343537" lon="31.2521568965"><ele>251.95</ele><time>2026-09-02T18:33:37Z</time></trkpt><trkpt lat="59.5686150715" lon="31.2523018196"><ele>249.76</ele><time>2026-09-02T18:33:52Z</time></trkpt><trkpt lat="59.5686724037" lon="31.2524405401"><ele>248.16</ele><time>2026-09-02T18:34:11Z</time></trkpt><trkpt lat="59.5687552169" lon="31.2524838746"><ele>246.23</ele><time>2026-09-02T18:34:25Z</time></trkpt><trkpt lat="59.5688250381" lon="31.2525130436"><ele>244.69</ele><time>2026-09-02T18:34:37Z</time></trkpt><trkpt lat="59.5689319912" lon="31.2525213417"><ele>243.72</ele><time>2026-09-02T18:34:56Z</time></trkpt><trkpt lat="59.5690233540" lon="31.2525885645"><ele>241.61</ele><time>2026-09-02T18:35:18Z</time></trkpt><trkpt lat="59.5690911636" lon="31.2526044063"><ele>239.99</ele><time>2026-09-02T18:35:36Z</time></trkpt><trkpt lat="59.5692054089" lon="31.2525602337"><ele>237.55</ele><time>2026-09-02T18:35:55Z</time></trkpt><trkpt lat="59.5692710392" lon="31.2525925878"><ele>236.80</ele><time>2026-09-02T18:36:09Z</time></trkpt><trkpt lat="59.5693716221" lon="31.2526091840"><ele>235.51</ele><time>2026-09-02T18:36:27Z</time></trkpt><trkpt lat="59.5694743004" lon="31.2526489981"><ele>233.99</ele><time>2026-09-02T18:36:42Z</time></trkpt><trkpt lat="59.5694674272" lon="31.2527343258"><ele>232.52</ele><time>2026-09-02T18:37:10Z</time></trkpt><trkpt lat="59.5695372485" lon="31.2527410313"><ele>230.03</ele><time>2026-09-02T18:37:33Z</time></trkpt><trkpt lat="59.5694984403" lon="31.2527115270"><ele>227.70</ele><time>2026-09-02T18:38:01Z</time></trkpt><trkpt lat="59.5695375837" lon="31.2528201565"><ele>225.44</ele><time>2026-09-02T18:38:22Z</time></trkpt><trkpt lat="59.5695426129" lon="31.2529283669"><ele>223.79</ele><time>2026-09-02T18:38:47Z</time></trkpt><trkpt lat="59.5696006995" lon="31.2530929036"><ele>222.47</ele><time>2026-09-02T18:39:13Z</time></trkpt><trkpt lat="59.5697476342" lon="31.2532431912"><ele>219.54</ele><time>2026-09-02T18:39:33Z</time></trkpt><trkpt lat="59.5698373206" lon="31.2535208836"><ele>218.04</ele><time>2026-09-02T18:39:52Z</time></trkpt><trkpt lat="59.5699390769" lon="31.2536906172"><ele>216.47</ele><time>2026-09-02T18:40:09Z</time></trkpt><trkpt lat="59.5700176153" lon="31.2540578283"><ele>213.63</ele><time>2026-09-02T18:40:31Z</time></trkpt><trkpt lat="59.5700405817" lon="31.2541167531"><ele>212.41</ele><time>2026-09-02T18:40:53Z</time></trkpt><trkpt lat="59.5699920505" lon="31.2540637795"><ele>212.12</ele><time>2026-09-02T18:41:08Z</time></trkpt><trkpt lat="59.5701038651" lon="31.2543247081"><ele>208.76</ele><time>2026-09-02T18:41:31Z</time></trkpt><trkpt lat="59.5701706689" lon="31.2544771750"><ele>208.40</ele><time>2026-09-02T18:41:41Z</time></trkpt><trkpt lat="59.5702752750" lon="31.2546661031"><ele>206.98</ele><time>2026-09-02T18:41:55Z</time></trkpt><trkpt lat="59.5703188609" lon="31.2547013070"><ele>205.44</ele><time>2026-09-02T18:42:09Z</time></trkpt><trkpt lat="59.5703259017" lon="31.2547081802"><ele>204.86</ele><time>2026-09-02T18:42:16Z</time></trkpt><trkpt lat="59.5703957230" lon="31.2548012193"><ele>203.36</ele><time>2026-09-02T18:42:32Z</time></trkpt><trkpt lat="59.5704889297" lon="31.2548522651"><ele>200.94</ele><time>2026-09-02T18:42:52Z</time></trkpt><trkpt lat="59.5705584157" lon="31.2549104355"><ele>199.85</ele><time>2026-09-02T18:43:08Z</time></trkpt><trkpt lat="59.5705849025" lon="31.2549728807"><ele>198.80</ele><time>2026-09-02T18:43:31Z</time></trkpt><trkpt lat="59.5705969725" lon="31.2550432049"><ele>197.24</ele><time>2026-09-02T18:43:45Z</time></trkpt><trkpt lat="59.5706469286" lon="31.2552334741"><ele>196.63</ele><time>2026-09-02T18:44:06Z</time></trkpt><trkpt lat="59.5706838090" lon="31.2552876212"><ele>193.60</ele><time>2026-09-02T18:44:48Z</time></trkpt><trkpt lat="59.5706438273" lon="31.2553468812"><ele>191.47</ele><time>2026-09-02T18:45:15Z</time></trkpt><trkpt lat="59.5706593338" lon="31.2555675767"><ele>190.72</ele><time>2026-09-02T18:45:38Z</time></trkpt><trkpt lat="59.5707478467" lon="31.2556814868"><ele>188.76</ele><time>2026-09-02T18:45:56Z</time></trkpt><trkpt lat="59.5708301570" lon="31.2558511365"><ele>187.05</ele><time>2026-09-02T18:46:13Z</time></trkpt><trkpt lat="59.5708660316" lon="31.2558386475"><ele>186.59</ele><time>2026-09-02T18:46:21Z</time></trkpt><trkpt lat="59.5709688775" lon="31.2558366358"><ele>186.51</ele><time>2026-09-02T18:46:38Z</time></trkpt><trkpt lat="59.5709866472" lon="31.2560641207"><ele>185.10</ele><time>2026-09-02T18:46:57Z</time></trkpt><trkpt lat="59.5710180793" lon="31.2562098820"><ele>184.04</ele><time>2026-09-02T18:47:11Z</time></trkpt><trkpt lat="59.5711025689" lon="31.2564702239"><ele>182.39</ele><time>2026-09-02T18:47:33Z</time></trkpt><trkpt lat="59.5711735636" lon="31.2566240318"><ele>181.19</ele><time>2026-09-02T18:47:50Z</time></trkpt><trkpt lat="59.5711317379" lon="31.2567677815"><ele>180.27</ele><time>2026-09-02T18:48:15Z</time></trkpt><trkpt lat="59.5711651817" lon="31.2567169033"><ele>177.69</ele><time>2026-09-02T18:48:47Z</time></trkpt><trkpt lat="59.5712765772" lon="31.2568503432"><ele>176.47</ele><time>2026-09-02T18:49:06Z</time></trkpt><trkpt lat="59.5713574626" lon="31.2569463160"><ele>175.24</ele><time>2026-09-02T18:49:25Z</time></trkpt><trkpt lat="59.5714782458" lon="31.2570981961"><ele>174.98</ele><time>2026-09-02T18:49:42Z</time></trkpt><trkpt lat="59.5715931617" lon="31.2573468871"><ele>173.09</ele><time>2026-09-02T18:50:02Z</time></trkpt><trkpt lat="59.5716896374" lon="31.2576362304"><ele>171.64</ele><time>2026-09-02T18:50:25Z</time></trkpt><trkpt lat="59.5717724506" lon="31.2578037847"><ele>171.55</ele><time>2026-09-02T18:50:40Z</time></trkpt><trkpt lat="59.5717737917" lon="31.2579801399"><ele>169.71</ele><time>2026-09-02T18:51:02Z</time></trkpt><trkpt lat="59.5718141925" lon="31.2578676548"><ele>167.45</ele><time>2026-09-02T18:51:32Z</time></trkpt><trkpt lat="59.5719094947" lon="31.2579236459"><ele>166.74</ele><time>2026-09-02T18:51:49Z</time></trkpt><trkpt lat="59.5719017833" lon="31.2580699101"><ele>166.30</ele><time>2026-09-02T18:52:07Z</time></trkpt><trkpt lat="59.5719612110" lon="31.2582002487"><ele>165.24</ele><time>2026-09-02T18:52:26Z</time></trkpt><trkpt lat="59.5720398333" lon="31.2583989836"><ele>164.42</ele><time>2026-09-02T18:52:42Z</time></trkpt><trkpt lat="59.5721156895" lon="31.2585349381"><ele>163.32</ele><time>2026-09-02T18:53:00Z</time></trkpt><trkpt lat="59.5721591078" lon="31.2585873250"><ele>161.87</ele><time>2026-09-02T18:53:26Z</time></trkpt><trkpt lat="59.5721683279" lon="31.2586400472"><ele>159.98</ele><time>2026-09-02T18:53:59Z</time></trkpt><trkpt lat="59.5722409990" lon="31.2588043325"><ele>159.12</ele><time>2026-09-02T18:54:20Z</time></trkpt><trkpt lat="59.5723261591" lon="31.2589842919"><ele>157.43</ele><time>2026-09-02T18:54:34Z</time></trkpt><trkpt lat="59.5723311882" lon="31.2590438034"><ele>156.22</ele><time>2026-09-02T18:54:39Z</time></trkpt><trkpt lat="59.5723456051" lon="31.2592172250"><ele>154.70</ele><time>2026-09-02T18:54:58Z</time></trkpt><trkpt lat="59.5723632909" lon="31.2594465539"><ele>155.75</ele><time>2026-09-02T18:55:18Z</time></trkpt><trkpt lat="59.5724241436" lon="31.2596200593"><ele>154.55</ele><time>2026-09-02T18:55:32Z</time></trkpt><trkpt lat="59.5724370517" lon="31.2596571073"><ele>153.70</ele><time>2026-09-02T18:55:57Z</time></trkpt><trkpt lat="59.5724036917" lon="31.2597300299"><ele>152.86</ele><time>2026-09-02T18:56:20Z</time></trkpt><trkpt lat="59.5723967347" lon="31.2597850990"><ele>152.16</ele><time>2026-09-02T18:56:30Z</time></trkpt><trkpt lat="59.5723775402" lon="31.2598829158"><ele>152.26</ele><time>2026-09-02T18:56:44Z</time></trkpt><trkpt lat="59.5724867564" lon="31.2598974165"><ele>151.36</ele><time>2026-09-02T18:56:59Z</time></trkpt><trkpt lat="59.5725375507" lon="31.2598855142"><ele>150.26</ele><time>2026-09-02T18:57:05Z</time></trkpt><trkpt lat="59.5725754369" lon="31.2598630507"><ele>150.24</ele><time>2026-09-02T18:57:18Z</time></trkpt><trkpt lat="59.5725384727" lon="31.2598018628"><ele>148.85</ele><time>2026-09-02T18:57:49Z</time></trkpt><trkpt lat="59.5726484433" lon="31.2598195486"><ele>146.27</ele><time>2026-09-02T18:58:14Z</time></trkpt><trkpt lat="59.5726983994" lon="31.2598874420"><ele>145.00</ele><time>2026-09-02T18:58:29Z</time></trkpt><trkpt lat="59.5727750938" lon="31.2599845883"><ele>142.72</ele><time>2026-09-02T18:58:47Z</time></trkpt><trkpt lat="59.5727912709" lon="31.2600911222"><ele>139.59</ele><time>2026-09-02T18:58:57Z</time></trkpt><trkpt lat="59.5727937855" lon="31.2601005938"><ele>139.43</ele><time>2026-09-02T18:58:58Z</time></trkpt><trkpt lat="59.5728016645" lon="31.2602126598"><ele>138.13</ele><time>2026-09-02T18:59:19Z</time></trkpt><trkpt lat="59.5727771893" lon="31.2603327725"><ele>138.52</ele><time>2026-09-02T18:59:37Z</time></trkpt><trkpt lat="59.5727983117" lon="31.2604040187"><ele>137.63</ele><time>2026-09-02T18:59:44Z</time></trkpt><trkpt lat="59.5728112198" lon="31.2604446709"><ele>139.94</ele><time>2026-09-02T18:59:49Z</time></trkpt><trkpt lat="59.5729449950" lon="31.2605429068"><ele>138.96</ele><time>2026-09-02T19:00:07Z</time></trkpt><trkpt lat="59.5730479248" lon="31.2606522068"><ele>139.23</ele><time>2026-09-02T19:00:25Z</time></trkpt><trkpt lat="59.5731440652" lon="31.2607990578"><ele>139.58</ele><time>2026-09-02T19:00:38Z</time></trkpt><trkpt lat="59.5732720569" lon="31.2609453220"><ele>139.34</ele><time>2026-09-02T19:00:53Z</time></trkpt><trkpt lat="59.5732595678" lon="31.2608610000"><ele>138.38</ele><time>2026-09-02T19:01:15Z</time></trkpt><trkpt lat="59.5732409600" lon="31.2608869001"><ele>136.86</ele><time>2026-09-02T19:01:44Z</time></trkpt><trkpt lat="59.5733359270" lon="31.2610647641"><ele>135.24</ele><time>2026-09-02T19:01:58Z</time></trkpt><trkpt lat="59.5735147130" lon="31.2614434585"><ele>134.20</ele><time>2026-09-02T19:02:32Z</time></trkpt><trkpt lat="59.5735966880" lon="31.2616240885"><ele>134.13</ele><time>2026-09-02T19:02:51Z</time></trkpt><trkpt lat="59.5736496616" lon="31.2617992703"><ele>133.38</ele><time>2026-09-02T19:03:08Z</time></trkpt><trkpt lat="59.5736621507" lon="31.2618198898"><ele>133.90</ele><time>2026-09-02T19:03:11Z</time></trkpt><trkpt lat="59.5736686885" lon="31.2618705165"><ele>133.00</ele><time>2026-09-02T19:03:22Z</time></trkpt><trkpt lat="59.5736421179" lon="31.2619255017"><ele>132.21</ele><time>2026-09-02T19:03:51Z</time></trkpt><trkpt lat="59.5736524276" lon="31.2619037926"><ele>130.96</ele><time>2026-09-02T19:04:20Z</time></trkpt><trkpt lat="59.5737798326" lon="31.2618813291"><ele>130.06</ele><time>2026-09-02T19:04:44Z</time></trkpt><trkpt lat="59.5738795772" lon="31.2618796527"><ele>129.39</ele><time>2026-09-02T19:04:59Z</time></trkpt><trkpt lat="59.5739103388" lon="31.2618780602"><ele>129.79</ele><time>2026-09-02T19:05:02Z</time></trkpt><trkpt lat="59.5740350615" lon="31.2618952431"><ele>129.15</ele><time>2026-09-02T19:05:13Z</time></trkpt><trkpt lat="59.5741738658" lon="31.2618815806"><ele>128.92</ele><time>2026-09-02T19:05:30Z</time></trkpt><trkpt lat="59.5742582716" lon="31.2618917227"><ele>127.53</ele><time>2026-09-02T19:05:56Z</time></trkpt><trkpt lat="59.5743784681" lon="31.2618690915"><ele>126.69</ele><time>2026-09-02T19:06:19Z</time></trkpt><trkpt lat="59.5744750276" lon="31.2618397549"><ele>126.24</ele><time>2026-09-02T19:06:34Z</time></trkpt><trkpt lat="59.5745415799" lon="31.2618135195"><ele>125.86</ele><time>2026-09-02T19:06:43Z</time></trkpt><trkpt lat="59.5747236349" lon="31.2618216500"><ele>125.96</ele><time>2026-09-02T19:07:00Z</time></trkpt><trkpt lat="59.5747187734" lon="31.2618553452"><ele>125.43</ele><time>2026-09-02T19:07:10Z</time></trkpt><trkpt lat="59.5747015066" lon="31.2617905531"><ele>124.80</ele><time>2026-09-02T19:07:40Z</time></trkpt><trkpt lat="59.5747022610" lon="31.2618109211"><ele>123.43</ele><time>2026-09-02T19:07:57Z</time></trkpt><trkpt lat="59.5748237148" lon="31.2618308701"><ele>122.80</ele><time>2026-09-02T19:08:12Z</time></trkpt><trkpt lat="59.5749811269" lon="31.2618917227"><ele>121.19</ele><time>2026-09-02T19:08:29Z</time></trkpt><trkpt lat="59.5751511957" lon="31.2620071415"><ele>120.15</ele><time>2026-09-02T19:08:42Z</time></trkpt><trkpt lat="59.5752045047" lon="31.2620305270"><ele>120.57</ele><time>2026-09-02T19:08:46Z</time></trkpt><trkpt lat="59.5752722304" lon="31.2620954867"><ele>119.47</ele><time>2026-09-02T19:08:53Z</time></trkpt><trkpt lat="59.5753064286" lon="31.2621294335"><ele>119.29</ele><time>2026-09-02T19:08:56Z</time></trkpt><trkpt lat="59.5753548760" lon="31.2621597759"><ele>119.41</ele><time>2026-09-02T19:08:59Z</time></trkpt><trkpt lat="59.5753764175" lon="31.2621780485"><ele>119.69</ele><time>2026-09-02T19:09:01Z</time></trkpt><trkpt lat="59.5754600689" lon="31.2623010110"><ele>119.76</ele><time>2026-09-02T19:09:07Z</time></trkpt><trkpt lat="59.5755163953" lon="31.2624062877"><ele>118.79</ele><time>2026-09-02T19:09:14Z</time></trkpt><trkpt lat="59.5755353384" lon="31.2624583393"><ele>118.59</ele><time>2026-09-02T19:09:30Z</time></trkpt><trkpt lat="59.5755034871" lon="31.2624608539"><ele>117.27</ele><time>2026-09-02T19:10:02Z</time></trkpt><trkpt lat="59.5755080134" lon="31.2624448445"><ele>116.88</ele><time>2026-09-02T19:10:13Z</time></trkpt><trkpt lat="59.5756696165" lon="31.2626317609"><ele>116.29</ele><time>2026-09-02T19:10:32Z</time></trkpt><trkpt lat="59.5757414494" lon="31.2627338525"><ele>115.89</ele><time>2026-09-02T19:10:44Z</time></trkpt><trkpt lat="59.5758090075" lon="31.2628711481"><ele>115.39</ele><time>2026-09-02T19:10:55Z</time></trkpt><trkpt lat="59.5759142004" lon="31.2630159874"><ele>115.14</ele><time>2026-09-02T19:11:10Z</time></trkpt><trkpt lat="59.5760490652" lon="31.2630242854"><ele>114.98</ele><time>2026-09-02T19:11:25Z</time></trkpt><trkpt lat="59.5762212295" lon="31.2629931886"><ele>113.74</ele><time>2026-09-02T19:11:40Z</time></trkpt><trkpt lat="59.5764013566" lon="31.2630746607"><ele>113.27</ele><time>2026-09-02T19:11:57Z</time></trkpt><trkpt lat="59.5764598623" lon="31.2631049193"><ele>111.81</ele><time>2026-09-02T19:12:21Z</time></trkpt><trkpt lat="59.5764812361" lon="31.2630251236"><ele>112.03</ele><time>2026-09-02T19:12:47Z</time></trkpt><trkpt lat="59.5766229741" lon="31.2630525324"><ele>111.11</ele><time>2026-09-02T19:13:05Z</time></trkpt><trkpt lat="59.5767783746" lon="31.2631706335"><ele>110.11</ele><time>2026-09-02T19:13:23Z</time></trkpt><trkpt lat="59.5768471062" lon="31.2632687017"><ele>110.06</ele><time>2026-09-02T19:13:34Z</time></trkpt><trkpt lat="59.5769854076" lon="31.2633986212"><ele>109.48</ele><time>2026-09-02T19:13:52Z</time></trkpt><trkpt lat="59.5770991500" lon="31.2635235116"><ele>109.37</ele><time>2026-09-02T19:14:07Z</time></trkpt><trkpt lat="59.5772869047" lon="31.2638045568"><ele>108.37</ele><time>2026-09-02T19:14:31Z</time></trkpt><trkpt lat="59.5773051772" lon="31.2637723703"><ele>108.10</ele><time>2026-09-02T19:14:57Z</time></trkpt><trkpt lat="59.5773393754" lon="31.2638447061"><ele>105.48</ele><time>2026-09-02T19:15:29Z</time></trkpt><trkpt lat="59.5773459971" lon="31.2638868671"><ele>105.96</ele><time>2026-09-02T19:16:01Z</time></trkpt><trkpt lat="59.5773352683" lon="31.2637386750"><ele>106.35</ele><time>2026-09-02T19:16:23Z</time></trkpt><trkpt lat="59.5774105377" lon="31.2636199035"><ele>105.00</ele><time>2026-09-02T19:16:45Z</time></trkpt><trkpt lat="59.5774483401" lon="31.2634681910"><ele>104.85</ele><time>2026-09-02T19:17:01Z</time></trkpt><trkpt lat="59.5775051694" lon="31.2632376049"><ele>103.26</ele><time>2026-09-02T19:17:24Z</time></trkpt><trkpt lat="59.5776422974" lon="31.2630624231"><ele>102.74</ele><time>2026-09-02T19:17:43Z</time></trkpt><trkpt lat="59.5777498372" lon="31.2628565636"><ele>102.47</ele><time>2026-09-02T19:18:05Z</time></trkpt><trkpt lat="59.5778309740" lon="31.2626843993"><ele>101.97</ele><time>2026-09-02T19:18:23Z</time></trkpt><trkpt lat="59.5778697822" lon="31.2625563238"><ele>102.10</ele><time>2026-09-02T19:18:47Z</time></trkpt><trkpt lat="59.5778701175" lon="31.2624869216"><ele>101.58</ele><time>2026-09-02T19:19:11Z</time></trkpt><trkpt lat="59.5779282879" lon="31.2624419946"><ele>100.19</ele><time>2026-09-02T19:19:35Z</time></trkpt><trkpt lat="59.5779596362" lon="31.2623298448"><ele>100.69</ele><time>2026-09-02T19:19:51Z</time></trkpt><trkpt lat="59.5780291222" lon="31.2622767035"><ele>99.81</ele><time>2026-09-02T19:20:11Z</time></trkpt><trkpt lat="59.5781088341" lon="31.2621213868"><ele>98.86</ele><time>2026-09-02T19:20:33Z</time></trkpt><trkpt lat="59.5781722851" lon="31.2618923094"><ele>98.28</ele><time>2026-09-02T19:20:55Z</time></trkpt><trkpt lat="59.5782379154" lon="31.2617911398"><ele>97.16</ele><time>2026-09-02T19:21:09Z</time></trkpt><trkpt lat="59.5783379115" lon="31.2615301274"><ele>96.77</ele><time>2026-09-02T19:21:32Z</time></trkpt><trkpt lat="59.5784043800" lon="31.2613786664"><ele>95.67</ele><time>2026-09-02T19:21:48Z</time></trkpt><trkpt lat="59.5784313697" lon="31.2612890638"><ele>95.84</ele><time>2026-09-02T19:22:12Z</time></trkpt><trkpt lat="59.5784291904" lon="31.2612448074"><ele>95.20</ele><time>2026-09-02T19:22:40Z</time></trkpt><trkpt lat="59.5784866903" lon="31.2612582184"><ele>93.35</ele><time>2026-09-02T19:22:57Z</time></trkpt><trkpt lat="59.5785467047" lon="31.2611500919"><ele>93.95</ele><time>2026-09-02T19:23:18Z</time></trkpt><trkpt lat="59.5786373969" lon="31.2610067613"><ele>93.56</ele><time>2026-09-02T19:23:38Z</time></trkpt><trkpt lat="59.5786926337" lon="31.2608563062"><ele>91.87</ele><time>2026-09-02T19:23:56Z</time></trkpt><trkpt lat="59.5787773747" lon="31.2606271449"><ele>92.10</ele><time>2026-09-02T19:24:19Z</time></trkpt><trkpt lat="59.5788850822" lon="31.2604324333"><ele>91.27</ele><time>2026-09-02T19:24:40Z</time></trkpt><trkpt lat="59.5789554901" lon="31.2603205349"><ele>91.51</ele><time>2026-09-02T19:25:02Z</time></trkpt><trkpt lat="59.5789709128" lon="31.2601751089"><ele>90.64</ele><time>2026-09-02T19:25:21Z</time></trkpt><trkpt lat="59.5790090505" lon="31.2600056268"><ele>90.78</ele><time>2026-09-02T19:25:43Z</time></trkpt><trkpt lat="59.5790185221" lon="31.2600487936"><ele>90.45</ele><time>2026-09-02T19:26:13Z</time></trkpt><trkpt lat="59.5790648740" lon="31.2600411661"><ele>89.08</ele><time>2026-09-02T19:26:33Z</time></trkpt><trkpt lat="59.5791310072" lon="31.2599048764"><ele>89.83</ele><time>2026-09-02T19:26:53Z</time></trkpt><trkpt lat="59.5792051032" lon="31.2598570995"><ele>89.55</ele><time>2026-09-02T19:27:11Z</time></trkpt><trkpt lat="59.5792725775" lon="31.2596809957"><ele>88.44</ele><time>2026-09-02T19:27:31Z</time></trkpt><trkpt lat="59.5793107152" lon="31.2595782336"><ele>88.44</ele><time>2026-09-02T19:27:49Z</time></trkpt><trkpt lat="59.5793930255" lon="31.2593333144"><ele>87.95</ele><time>2026-09-02T19:28:10Z</time></trkpt><trkpt lat="59.5793856494" lon="31.2591452245"><ele>87.72</ele><time>2026-09-02T19:28:31Z</time></trkpt><trkpt lat="59.5794118010" lon="31.2591448892"><ele>87.96</ele><time>2026-09-02T19:28:39Z</time></trkpt><trkpt lat="59.5794960391" lon="31.2590957712"><ele>87.27</ele><time>2026-09-02T19:28:55Z</time></trkpt><trkpt lat="59.5795721468" lon="31.2590456475"><ele>87.11</ele><time>2026-09-02T19:29:10Z</time></trkpt><trkpt lat="59.5795998070" lon="31.2590404507"><ele>87.08</ele><time>2026-09-02T19:29:20Z</time></trkpt><trkpt lat="59.5796543732" lon="31.2588759139"><ele>86.35</ele><time>2026-09-02T19:29:37Z</time></trkpt><trkpt lat="59.5797788445" lon="31.2587778457"><ele>85.01</ele><time>2026-09-02T19:30:30Z</time></trkpt><trkpt lat="59.5798286330" lon="31.2587575614"><ele>84.96</ele><time>2026-09-02T19:31:01Z</time></trkpt><trkpt lat="59.5797589794" lon="31.2585286517"><ele>83.12</ele><time>2026-09-02T19:32:17Z</time></trkpt><trkpt lat="59.5798039064" lon="31.2586900033"><ele>82.53</ele><time>2026-09-02T19:32:49Z</time></trkpt><trkpt lat="59.5798328239" lon="31.2587439828"><ele>82.13</ele><time>2026-09-02T19:34:02Z</time></trkpt><trkpt lat="59.5798787568" lon="31.2585378718"><ele>81.46</ele><time>2026-09-02T19:34:22Z</time></trkpt><trkpt lat="59.5799260307" lon="31.2583818007"><ele>80.19</ele><time>2026-09-02T19:34:39Z</time></trkpt><trkpt lat="59.5799707901" lon="31.2581875082"><ele>81.12</ele><time>2026-09-02T19:35:00Z</time></trkpt><trkpt lat="59.5800519269" lon="31.2579602748"><ele>80.68</ele><time>2026-09-02T19:35:24Z</time></trkpt><trkpt lat="59.5801054034" lon="31.2578871008"><ele>78.43</ele><time>2026-09-02T19:35:34Z</time></trkpt><trkpt lat="59.5801304653" lon="31.2578306906"><ele>80.92</ele><time>2026-09-02T19:35:39Z</time></trkpt><trkpt lat="59.5801927429" lon="31.2576389965"><ele>80.64</ele><time>2026-09-02T19:35:53Z</time></trkpt><trkpt lat="59.5802240912" lon="31.2574115954"><ele>77.84</ele><time>2026-09-02T19:36:12Z</time></trkpt><trkpt lat="59.5802558586" lon="31.2574329693"><ele>80.05</ele><time>2026-09-02T19:36:27Z</time></trkpt><trkpt lat="59.5803492330" lon="31.2574362382"><ele>78.61</ele><time>2026-09-02T19:36:59Z</time></trkpt><trkpt lat="59.5804234128" lon="31.2574126851"><ele>78.77</ele><time>2026-09-02T19:37:26Z</time></trkpt><trkpt lat="59.5804476365" lon="31.2573818397"><ele>78.38</ele><time>2026-09-02T19:37:50Z</time></trkpt><trkpt lat="59.5804456249" lon="31.2572465558"><ele>77.81</ele><time>2026-09-02T19:38:21Z</time></trkpt><trkpt lat="59.5803940762" lon="31.2572147045"><ele>76.94</ele><time>2026-09-02T19:38:59Z</time></trkpt><trkpt lat="59.5804529171" lon="31.2570173945"><ele>77.18</ele><time>2026-09-02T19:39:22Z</time></trkpt><trkpt lat="59.5804539230" lon="31.2569049932"><ele>77.19</ele><time>2026-09-02T19:39:42Z</time></trkpt><trkpt lat="59.5804782305" lon="31.2568634190"><ele>76.62</ele><time>2026-09-02T19:39:52Z</time></trkpt><trkpt lat="59.5805528294" lon="31.2568373512"><ele>76.88</ele><time>2026-09-02T19:40:09Z</time></trkpt><trkpt lat="59.5805808250" lon="31.2567895744"><ele>75.86</ele><time>2026-09-02T19:40:31Z</time></trkpt><trkpt lat="59.5806050487" lon="31.2567824498"><ele>75.49</ele><time>2026-09-02T19:40:35Z</time></trkpt><trkpt lat="59.5806186274" lon="31.2567262910"><ele>75.81</ele><time>2026-09-02T19:41:05Z</time></trkpt><trkpt lat="59.5806624647" lon="31.2567189988"><ele>75.98</ele><time>2026-09-02T19:41:30Z</time></trkpt><trkpt lat="59.5807349682" lon="31.2567201722"><ele>75.10</ele><time>2026-09-02T19:41:48Z</time></trkpt><trkpt lat="59.5807691664" lon="31.2566951104"><ele>74.39</ele><time>2026-09-02T19:42:08Z</time></trkpt><trkpt lat="59.5807721000" lon="31.2566532008"><ele>73.86</ele><time>2026-09-02T19:42:14Z</time></trkpt><trkpt lat="59.5808304381" lon="31.2565351836"><ele>74.00</ele><time>2026-09-02T19:42:29Z</time></trkpt><trkpt lat="59.5808800589" lon="31.2563355267"><ele>75.08</ele><time>2026-09-02T19:42:50Z</time></trkpt><trkpt lat="59.5809349604" lon="31.2561185192"><ele>74.81</ele><time>2026-09-02T19:43:08Z</time></trkpt><trkpt lat="59.5809570048" lon="31.2561390549"><ele>72.47</ele><time>2026-09-02T19:43:27Z</time></trkpt><trkpt lat="59.5809793845" lon="31.2560421601"><ele>74.28</ele><time>2026-09-02T19:43:57Z</time></trkpt><trkpt lat="59.5810381416" lon="31.2559107319"><ele>73.66</ele><time>2026-09-02T19:44:20Z</time></trkpt><trkpt lat="59.5810616948" lon="31.2558634579"><ele>74.06</ele><time>2026-09-02T19:44:30Z</time></trkpt><trkpt lat="59.5811561588" lon="31.2557298504"><ele>73.53</ele><time>2026-09-02T19:44:52Z</time></trkpt><trkpt lat="59.5811745152" lon="31.2554786447"><ele>73.01</ele><time>2026-09-02T19:45:12Z</time></trkpt><trkpt lat="59.5812231302" lon="31.2554036267"><ele>72.91</ele><time>2026-09-02T19:45:34Z</time></trkpt><trkpt lat="59.5812496170" lon="31.2553989328"><ele>73.30</ele><time>2026-09-02T19:45:40Z</time></trkpt><trkpt lat="59.5812927838" lon="31.2553506531"><ele>72.48</ele><time>2026-09-02T19:45:48Z</time></trkpt><trkpt lat="59.5813643653" lon="31.2552898843"><ele>72.73</ele><time>2026-09-02T19:46:00Z</time></trkpt><trkpt lat="59.5814028382" lon="31.2552556861"><ele>73.01</ele><time>2026-09-02T19:46:05Z</time></trkpt><trkpt lat="59.5814139862" lon="31.2552443705"><ele>72.58</ele><time>2026-09-02T19:46:07Z</time></trkpt><trkpt lat="59.5814853162" lon="31.2551159598"><ele>72.21</ele><time>2026-09-02T19:46:29Z</time></trkpt><trkpt lat="59.5814861543" lon="31.2550844438"><ele>72.17</ele><time>2026-09-02T19:46:37Z</time></trkpt><trkpt lat="59.5814993978" lon="31.2550626509"><ele>70.70</ele><time>2026-09-02T19:46:39Z</time></trkpt><trkpt lat="59.5815090369" lon="31.2550320569"><ele>72.14</ele><time>2026-09-02T19:46:44Z</time></trkpt><trkpt lat="59.5815485157" lon="31.2549442146"><ele>71.82</ele><time>2026-09-02T19:47:04Z</time></trkpt><trkpt lat="59.5815931074" lon="31.2549773231"><ele>71.52</ele><time>2026-09-02T19:47:37Z</time></trkpt><trkpt lat="59.5815752540" lon="31.2549463939"><ele>71.62</ele><time>2026-09-02T19:48:05Z</time></trkpt><trkpt lat="59.5815800317" lon="31.2549359165"><ele>71.36</ele><time>2026-09-02T19:48:37Z</time></trkpt><trkpt lat="59.5815792773" lon="31.2548874691"><ele>71.00</ele><time>2026-09-02T19:48:55Z</time></trkpt><trkpt lat="59.5816701371" lon="31.2546573859"><ele>71.12</ele><time>2026-09-02T19:49:18Z</time></trkpt><trkpt lat="59.5817301515" lon="31.2544697151"><ele>70.08</ele><time>2026-09-02T19:49:38Z</time></trkpt><trkpt lat="59.5818236936" lon="31.2542266399"><ele>70.57</ele><time>2026-09-02T19:50:01Z</time></trkpt><trkpt lat="59.5819490030" lon="31.2540843990"><ele>69.81</ele><time>2026-09-02T19:50:27Z</time></trkpt><trkpt lat="59.5819959417" lon="31.2539537251"><ele>69.98</ele><time>2026-09-02T19:50:42Z</time></trkpt><trkpt lat="59.5820749830" lon="31.2537701614"><ele>69.69</ele><time>2026-09-02T19:51:01Z</time></trkpt><trkpt lat="59.5821244363" lon="31.2535147648"><ele>69.70</ele><time>2026-09-02T19:51:25Z</time></trkpt><trkpt lat="59.5821418706" lon="31.2535316125"><ele>69.40</ele><time>2026-09-02T19:51:47Z</time></trkpt><trkpt lat="59.5821614005" lon="31.2535341270"><ele>68.85</ele><time>2026-09-02T19:52:19Z</time></trkpt><trkpt lat="59.5822520927" lon="31.2533415947"><ele>68.66</ele><time>2026-09-02T19:52:43Z</time></trkpt><trkpt lat="59.5823022164" lon="31.2531070691"><ele>68.98</ele><time>2026-09-02T19:53:05Z</time></trkpt><trkpt lat="59.5824331418" lon="31.2529555243"><ele>68.49</ele><time>2026-09-02T19:53:26Z</time></trkpt><trkpt lat="59.5825309586" lon="31.2528955098"><ele>68.08</ele><time>2026-09-02T19:53:49Z</time></trkpt><trkpt lat="59.5826086588" lon="31.2529495731"><ele>67.81</ele><time>2026-09-02T19:54:07Z</time></trkpt><trkpt lat="59.5826204773" lon="31.2529337313"><ele>67.95</ele><time>2026-09-02T19:54:35Z</time></trkpt><trkpt lat="59.5826453716" lon="31.2528921571"><ele>67.81</ele><time>2026-09-02T19:54:49Z</time></trkpt><trkpt lat="59.5827304479" lon="31.2529042270"><ele>68.21</ele><time>2026-09-02T19:55:04Z</time></trkpt><trkpt lat="59.5827577729" lon="31.2529163808"><ele>67.84</ele><time>2026-09-02T19:55:30Z</time></trkpt><trkpt lat="59.5827589463" lon="31.2529157940"><ele>67.84</ele><time>2026-09-02T19:55:31Z</time></trkpt><trkpt lat="59.5827488042" lon="31.2529607210"><ele>67.73</ele><time>2026-09-02T19:55:38Z</time></trkpt><trkpt lat="59.5827738661" lon="31.2529736292"><ele>68.01</ele><time>2026-09-02T19:56:09Z</time></trkpt><trkpt lat="59.5827080682" lon="31.2528546900"><ele>66.75</ele><time>2026-09-02T19:56:39Z</time></trkpt><trkpt lat="59.5826282725" lon="31.2527015526"><ele>67.63</ele><time>2026-09-02T19:57:00Z</time></trkpt><trkpt lat="59.5826088265" lon="31.2526716292"><ele>67.02</ele><time>2026-09-02T19:57:10Z</time></trkpt><trkpt lat="59.5825892128" lon="31.2526281271"><ele>67.29</ele><time>2026-09-02T19:57:13Z</time></trkpt><trkpt lat="59.5825321320" lon="31.2525298912"><ele>67.62</ele><time>2026-09-02T19:57:28Z</time></trkpt><trkpt lat="59.5823836047" lon="31.2522214372"><ele>67.18</ele><time>2026-09-02T19:57:52Z</time></trkpt><trkpt lat="59.5823360793" lon="31.2520973850"><ele>67.42</ele><time>2026-09-02T19:58:01Z</time></trkpt><trkpt lat="59.5822079200" lon="31.2518996559"><ele>65.54</ele><time>2026-09-02T19:58:22Z</time></trkpt><trkpt lat="59.5820900705" lon="31.2516520545"><ele>66.84</ele><time>2026-09-02T19:58:43Z</time></trkpt><trkpt lat="59.5820378512" lon="31.2515214644"><ele>67.06</ele><time>2026-09-02T19:59:10Z</time></trkpt><trkpt lat="59.5820146333" lon="31.2515829876"><ele>66.61</ele><time>2026-09-02T19:59:29Z</time></trkpt><trkpt lat="59.5819325745" lon="31.2514577620"><ele>65.61</ele><time>2026-09-02T19:59:58Z</time></trkpt><trkpt lat="59.5818285551" lon="31.2512290198"><ele>65.34</ele><time>2026-09-02T20:00:19Z</time></trkpt><trkpt lat="59.5817392878" lon="31.2510079052"><ele>65.24</ele><time>2026-09-02T20:00:40Z</time></trkpt><trkpt lat="59.5816645212" lon="31.2508252636"><ele>65.40</ele><time>2026-09-02T20:01:01Z</time></trkpt><trkpt lat="59.5816035010" lon="31.2507033069"><ele>65.48</ele><time>2026-09-02T20:01:16Z</time></trkpt><trkpt lat="59.5815599989" lon="31.2506337371"><ele>64.79</ele><time>2026-09-02T20:01:32Z</time></trkpt><trkpt lat="59.5815582387" lon="31.2506257743"><ele>64.51</ele><time>2026-09-02T20:01:56Z</time></trkpt><trkpt lat="59.5815291535" lon="31.2506565358"><ele>64.54</ele><time>2026-09-02T20:02:21Z</time></trkpt><trkpt lat="59.5814607572" lon="31.2506826036"><ele>64.01</ele><time>2026-09-02T20:02:40Z</time></trkpt><trkpt lat="59.5814056881" lon="31.2507561967"><ele>63.12</ele><time>2026-09-02T20:02:55Z</time></trkpt><trkpt lat="59.5813103020" lon="31.2506382633"><ele>63.66</ele><time>2026-09-02T20:03:15Z</time></trkpt><trkpt lat="59.5813145768" lon="31.2506062444"><ele>62.76</ele><time>2026-09-02T20:03:38Z</time></trkpt><trkpt lat="59.5813149959" lon="31.2506341562"><ele>62.98</ele><time>2026-09-02T20:04:03Z</time></trkpt><trkpt lat="59.5813123975" lon="31.2506266963"><ele>62.66</ele><time>2026-09-02T20:04:32Z</time></trkpt><trkpt lat="59.5813015010" lon="31.2506306358"><ele>61.90</ele><time>2026-09-02T20:05:01Z</time></trkpt><trkpt lat="59.5813012496" lon="31.2506228406"><ele>62.07</ele><time>2026-09-02T20:05:29Z</time></trkpt><trkpt lat="59.5813198574" lon="31.2505924143"><ele>62.18</ele><time>2026-09-02T20:05:51Z</time></trkpt><trkpt lat="59.5813079551" lon="31.2505379319"><ele>62.12</ele><time>2026-09-02T20:06:13Z</time></trkpt><trkpt lat="59.5812945440" lon="31.2505469006"><ele>62.48</ele><time>2026-09-02T20:06:49Z</time></trkpt><trkpt lat="59.5813108888" lon="31.2505561206"><ele>61.70</ele><time>2026-09-02T20:07:20Z</time></trkpt><trkpt lat="59.5813064463" lon="31.2505547795"><ele>61.31</ele><time>2026-09-02T20:07:46Z</time></trkpt><trkpt lat="59.5812704880" lon="31.2505505048"><ele>60.43</ele><time>2026-09-02T20:08:14Z</time></trkpt><trkpt lat="59.5813162532" lon="31.2505707890"><ele>60.84</ele><time>2026-09-02T20:08:46Z</time></trkpt><trkpt lat="59.5812910236" lon="31.2505605631"><ele>60.58</ele><time>2026-09-02T20:09:14Z</time></trkpt><trkpt lat="59.5812853239" lon="31.2504935917"><ele>60.26</ele><time>2026-09-02T20:09:30Z</time></trkpt><trkpt lat="59.5812320150" lon="31.2503815256"><ele>60.02</ele><time>2026-09-02T20:09:49Z</time></trkpt><trkpt lat="59.5812327694" lon="31.2503712159"><ele>59.63</ele><time>2026-09-02T20:10:13Z</time></trkpt><trkpt lat="59.5812113117" lon="31.2503156438"><ele>58.94</ele><time>2026-09-02T20:10:33Z</time></trkpt><trkpt lat="59.5811875071" lon="31.2501029111"><ele>58.72</ele><time>2026-09-02T20:10:56Z</time></trkpt><trkpt lat="59.5811507944" lon="31.2500692997"><ele>58.91</ele><time>2026-09-02T20:11:16Z</time></trkpt><trkpt lat="59.5811350364" lon="31.2500729039"><ele>59.30</ele><time>2026-09-02T20:11:37Z</time></trkpt><trkpt lat="59.5811274927" lon="31.2499931920"><ele>58.96</ele><time>2026-09-02T20:12:00Z</time></trkpt><trkpt lat="59.5811634511" lon="31.2498285715"><ele>58.86</ele><time>2026-09-02T20:12:17Z</time></trkpt><trkpt lat="59.5811672229" lon="31.2497943733"><ele>57.95</ele><time>2026-09-02T20:12:34Z</time></trkpt><trkpt lat="59.5811119862" lon="31.2496431638"><ele>57.81</ele><time>2026-09-02T20:12:52Z</time></trkpt><trkpt lat="59.5811047778" lon="31.2495404854"><ele>58.44</ele><time>2026-09-02T20:13:13Z</time></trkpt><trkpt lat="59.5810346212" lon="31.2494419143"><ele>57.64</ele><time>2026-09-02T20:13:38Z</time></trkpt><trkpt lat="59.5809814800" lon="31.2493065465"><ele>57.38</ele><time>2026-09-02T20:13:58Z</time></trkpt><trkpt lat="59.5808717608" lon="31.2492848374"><ele>57.26</ele><time>2026-09-02T20:14:20Z</time></trkpt><trkpt lat="59.5808631275" lon="31.2492704205"><ele>57.48</ele><time>2026-09-02T20:14:27Z</time></trkpt><trkpt lat="59.5807881095" lon="31.2491464522"><ele>57.26</ele><time>2026-09-02T20:14:51Z</time></trkpt><trkpt lat="59.5807679929" lon="31.2491456140"><ele>57.54</ele><time>2026-09-02T20:15:12Z</time></trkpt><trkpt lat="59.5807317831" lon="31.2489945721"><ele>57.24</ele><time>2026-09-02T20:15:44Z</time></trkpt><trkpt lat="59.5807206351" lon="31.2489059754"><ele>56.87</ele><time>2026-09-02T20:16:13Z</time></trkpt><trkpt lat="59.5806911308" lon="31.2488472182"><ele>57.52</ele><time>2026-09-02T20:16:33Z</time></trkpt><trkpt lat="59.5807061344" lon="31.2487106770"><ele>57.64</ele><time>2026-09-02T20:16:54Z</time></trkpt><trkpt lat="59.5807072241" lon="31.2486991100"><ele>57.96</ele><time>2026-09-02T20:16:56Z</time></trkpt><trkpt lat="59.5807390753" lon="31.2485614792"><ele>58.73</ele><time>2026-09-02T20:17:11Z</time></trkpt><trkpt lat="59.5807304420" lon="31.2484613992"><ele>57.20</ele><time>2026-09-02T20:17:23Z</time></trkpt><trkpt lat="59.5807025302" lon="31.2483463157"><ele>57.52</ele><time>2026-09-02T20:17:41Z</time></trkpt><trkpt lat="59.5806344692" lon="31.2481979560"><ele>56.96</ele><time>2026-09-02T20:18:03Z</time></trkpt><trkpt lat="59.5805340540" lon="31.2481907476"><ele>57.76</ele><time>2026-09-02T20:18:23Z</time></trkpt><trkpt lat="59.5804294478" lon="31.2482594792"><ele>57.43</ele><time>2026-09-02T20:18:46Z</time></trkpt><trkpt lat="59.5803282782" lon="31.2482039910"><ele>57.50</ele><time>2026-09-02T20:19:10Z</time></trkpt><trkpt lat="59.5802582055" lon="31.2481479999"><ele>57.65</ele><time>2026-09-02T20:19:25Z</time></trkpt><trkpt lat="59.5802682638" lon="31.2481081020"><ele>57.41</ele><time>2026-09-02T20:19:39Z</time></trkpt><trkpt lat="59.5802153740" lon="31.2480557989"><ele>56.38</ele><time>2026-09-02T20:19:56Z</time></trkpt><trkpt lat="59.5801857859" lon="31.2479901686"><ele>57.84</ele><time>2026-09-02T20:20:01Z</time></trkpt><trkpt lat="59.5801225863" lon="31.2478221115"><ele>57.56</ele><time>2026-09-02T20:20:25Z</time></trkpt><trkpt lat="59.5801639929" lon="31.2477901764"><ele>57.02</ele><time>2026-09-02T20:20:55Z</time></trkpt><trkpt lat="59.5800523460" lon="31.2477489375"><ele>56.66</ele><time>2026-09-02T20:21:23Z</time></trkpt><trkpt lat="59.5799963549" lon="31.2475581653"><ele>56.45</ele><time>2026-09-02T20:21:47Z</time></trkpt><trkpt lat="59.5800019708" lon="31.2475078739"><ele>55.86</ele><time>2026-09-02T20:22:12Z</time></trkpt><trkpt lat="59.5799961034" lon="31.2475010008"><ele>55.50</ele><time>2026-09-02T20:22:14Z</time></trkpt><trkpt lat="59.5798998792" lon="31.2474318501"><ele>55.73</ele><time>2026-09-02T20:22:36Z</time></trkpt><trkpt lat="59.5798512641" lon="31.2473835703"><ele>56.33</ele><time>2026-09-02T20:22:54Z</time></trkpt><trkpt lat="59.5798524376" lon="31.2473486178"><ele>55.26</ele><time>2026-09-02T20:22:59Z</time></trkpt><trkpt lat="59.5798329916" lon="31.2473228853"><ele>56.36</ele><time>2026-09-02T20:23:04Z</time></trkpt><trkpt lat="59.5797889028" lon="31.2471673172"><ele>56.30</ele><time>2026-09-02T20:23:31Z</time></trkpt><trkpt lat="59.5797288883" lon="31.2470774632"><ele>56.04</ele><time>2026-09-02T20:23:53Z</time></trkpt><trkpt lat="59.5797864720" lon="31.2469948176"><ele>55.73</ele><time>2026-09-02T20:24:20Z</time></trkpt><trkpt lat="59.5797277987" lon="31.2470547482"><ele>55.92</ele><time>2026-09-02T20:24:52Z</time></trkpt><trkpt lat="59.5796998031" lon="31.2470041215"><ele>55.34</ele><time>2026-09-02T20:25:05Z</time></trkpt><trkpt lat="59.5797212608" lon="31.2470021099"><ele>54.91</ele><time>2026-09-02T20:25:08Z</time></trkpt><trkpt lat="59.5797424670" lon="31.2469406705"><ele>55.59</ele><time>2026-09-02T20:25:15Z</time></trkpt><trkpt lat="59.5795828756" lon="31.2467893772"><ele>56.79</ele><time>2026-09-02T20:25:40Z</time></trkpt><trkpt lat="59.5795242023" lon="31.2465955876"><ele>57.57</ele><time>2026-09-02T20:26:04Z</time></trkpt><trkpt lat="59.5795470010" lon="31.2465682626"><ele>56.44</ele><time>2026-09-02T20:26:36Z</time></trkpt><trkpt lat="59.5795455761" lon="31.2465737108"><ele>56.44</ele><time>2026-09-02T20:26:37Z</time></trkpt><trkpt lat="59.5794550516" lon="31.2464626506"><ele>57.90</ele><time>2026-09-02T20:26:58Z</time></trkpt><trkpt lat="59.5793693885" lon="31.2463267799"><ele>60.58</ele><time>2026-09-02T20:27:20Z</time></trkpt><trkpt lat="59.5793724898" lon="31.2462878879"><ele>62.79</ele><time>2026-09-02T20:27:37Z</time></trkpt><trkpt lat="59.5793089550" lon="31.2462932523"><ele>66.25</ele><time>2026-09-02T20:27:52Z</time></trkpt><trkpt lat="59.5791772753" lon="31.2461611535"><ele>67.99</ele><time>2026-09-02T20:28:15Z</time></trkpt><trkpt lat="59.5791196916" lon="31.2461184897"><ele>68.70</ele><time>2026-09-02T20:28:32Z</time></trkpt><trkpt lat="59.5790712442" lon="31.2460935116"><ele>69.39</ele><time>2026-09-02T20:28:38Z</time></trkpt><trkpt lat="59.5789876767" lon="31.2459025718"><ele>70.33</ele><time>2026-09-02T20:29:03Z</time></trkpt><trkpt lat="59.5789529756" lon="31.2457296532"><ele>70.09</ele><time>2026-09-02T20:29:25Z</time></trkpt><trkpt lat="59.5789247286" lon="31.2456881627"><ele>70.48</ele><time>2026-09-02T20:29:46Z</time></trkpt><trkpt lat="59.5789525565" lon="31.2457355205"><ele>70.27</ele><time>2026-09-02T20:30:16Z</time></trkpt><trkpt lat="59.5789738465" lon="31.2457751669"><ele>69.76</ele><time>2026-09-02T20:30:35Z</time></trkpt><trkpt lat="59.5789442584" lon="31.2457306590"><ele>69.71</ele><time>2026-09-02T20:31:04Z</time></trkpt><trkpt lat="59.5789450128" lon="31.2457305752"><ele>70.06</ele><time>2026-09-02T20:31:13Z</time></trkpt><trkpt lat="59.5789139159" lon="31.2456781883"><ele>69.96</ele><time>2026-09-02T20:31:41Z</time></trkpt><trkpt lat="59.5788509678" lon="31.2456553057"><ele>70.41</ele><time>2026-09-02T20:32:03Z</time></trkpt><trkpt lat="59.5787811466" lon="31.2456811219"><ele>69.82</ele><time>2026-09-02T20:32:20Z</time></trkpt><trkpt lat="59.5788107347" lon="31.2456071936"><ele>69.92</ele><time>2026-09-02T20:32:40Z</time></trkpt><trkpt lat="59.5788088068" lon="31.2455924414"><ele>68.12</ele><time>2026-09-02T20:32:44Z</time></trkpt><trkpt lat="59.5788021851" lon="31.2455881666"><ele>69.82</ele><time>2026-09-02T20:32:49Z</time></trkpt><trkpt lat="59.5788404904" lon="31.2455076165"><ele>69.18</ele><time>2026-09-02T20:33:13Z</time></trkpt><trkpt lat="59.5788436756" lon="31.2454530504"><ele>69.51</ele><time>2026-09-02T20:33:37Z</time></trkpt><trkpt lat="59.5788806397" lon="31.2454031780"><ele>68.32</ele><time>2026-09-02T20:34:00Z</time></trkpt><trkpt lat="59.5788720902" lon="31.2452929560"><ele>69.57</ele><time>2026-09-02T20:34:27Z</time></trkpt><trkpt lat="59.5788494591" lon="31.2452809699"><ele>69.93</ele><time>2026-09-02T20:34:44Z</time></trkpt><trkpt lat="59.5787926298" lon="31.2451766990"><ele>71.22</ele><time>2026-09-02T20:35:08Z</time></trkpt><trkpt lat="59.5787380636" lon="31.2450294290"><ele>71.29</ele><time>2026-09-02T20:35:25Z</time></trkpt><trkpt lat="59.5786763728" lon="31.2449138425"><ele>71.56</ele><time>2026-09-02T20:35:32Z</time></trkpt><trkpt lat="59.5786520652" lon="31.2448735256"><ele>70.86</ele><time>2026-09-02T20:35:38Z</time></trkpt><trkpt lat="59.5785577688" lon="31.2447058875"><ele>69.05</ele><time>2026-09-02T20:35:58Z</time></trkpt><trkpt lat="59.5785427652" lon="31.2446606252"><ele>67.16</ele><time>2026-09-02T20:36:02Z</time></trkpt><trkpt lat="59.5785014424" lon="31.2444913108"><ele>67.83</ele><time>2026-09-02T20:36:22Z</time></trkpt><trkpt lat="59.5784940664" lon="31.2445058115"><ele>67.77</ele><time>2026-09-02T20:36:34Z</time></trkpt><trkpt lat="59.5784730278" lon="31.2444887124"><ele>67.42</ele><time>2026-09-02T20:36:42Z</time></trkpt><trkpt lat="59.5785275940" lon="31.2445089966"><ele>67.57</ele><time>2026-09-02T20:37:17Z</time></trkpt><trkpt lat="59.5784307830" lon="31.2443666719"><ele>67.35</ele><time>2026-09-02T20:37:38Z</time></trkpt><trkpt lat="59.5783902146" lon="31.2443127763"><ele>66.48</ele><time>2026-09-02T20:37:53Z</time></trkpt><trkpt lat="59.5783285238" lon="31.2442788295"><ele>66.94</ele><time>2026-09-02T20:38:07Z</time></trkpt><trkpt lat="59.5782969240" lon="31.2442256883"><ele>66.91</ele><time>2026-09-02T20:38:12Z</time></trkpt><trkpt lat="59.5782809984" lon="31.2442075834"><ele>66.74</ele><time>2026-09-02T20:38:14Z</time></trkpt><trkpt lat="59.5782374125" lon="31.2441158015"><ele>66.63</ele><time>2026-09-02T20:38:23Z</time></trkpt><trkpt lat="59.5781392604" lon="31.2439655978"><ele>67.66</ele><time>2026-09-02T20:38:40Z</time></trkpt><trkpt lat="59.5780998655" lon="31.2438577227"><ele>69.71</ele><time>2026-09-02T20:38:54Z</time></trkpt><trkpt lat="59.5780344866" lon="31.2437742390"><ele>71.64</ele><time>2026-09-02T20:39:04Z</time></trkpt><trkpt lat="59.5780378394" lon="31.2436370272"><ele>72.94</ele><time>2026-09-02T20:39:25Z</time></trkpt><trkpt lat="59.5780571178" lon="31.2436335068"><ele>72.75</ele><time>2026-09-02T20:39:29Z</time></trkpt><trkpt lat="59.5781171322" lon="31.2435836345"><ele>72.81</ele><time>2026-09-02T20:39:43Z</time></trkpt><trkpt lat="59.5781152043" lon="31.2435181718"><ele>72.10</ele><time>2026-09-02T20:40:09Z</time></trkpt><trkpt lat="59.5781003684" lon="31.2435741629"><ele>72.81</ele><time>2026-09-02T20:40:51Z</time></trkpt><trkpt lat="59.5780920703" lon="31.2435394619"><ele>72.08</ele><time>2026-09-02T20:41:00Z</time></trkpt><trkpt lat="59.5779434592" lon="31.2435440719"><ele>71.94</ele><time>2026-09-02T20:41:19Z</time></trkpt><trkpt lat="59.5778612327" lon="31.2433725782"><ele>71.54</ele><time>2026-09-02T20:41:40Z</time></trkpt><trkpt lat="59.5777697023" lon="31.2433588319"><ele>72.16</ele><time>2026-09-02T20:42:09Z</time></trkpt><trkpt lat="59.5777333248" lon="31.2434295751"><ele>71.95</ele><time>2026-09-02T20:42:38Z</time></trkpt><trkpt lat="59.5777280442" lon="31.2432817183"><ele>71.28</ele><time>2026-09-02T20:43:00Z</time></trkpt><trkpt lat="59.5777210873" lon="31.2430803850"><ele>70.52</ele><time>2026-09-02T20:43:15Z</time></trkpt><trkpt lat="59.5776880626" lon="31.2429532316"><ele>68.96</ele><time>2026-09-02T20:43:30Z</time></trkpt><trkpt lat="59.5776863862" lon="31.2429498788"><ele>68.76</ele><time>2026-09-02T20:43:31Z</time></trkpt><trkpt lat="59.5777018927" lon="31.2429127470"><ele>67.53</ele><time>2026-09-02T20:43:36Z</time></trkpt><trkpt lat="59.5776920859" lon="31.2428326160"><ele>68.00</ele><time>2026-09-02T20:43:42Z</time></trkpt><trkpt lat="59.5775511861" lon="31.2426348031"><ele>69.49</ele><time>2026-09-02T20:44:05Z</time></trkpt><trkpt lat="59.5773786865" lon="31.2423605472"><ele>70.03</ele><time>2026-09-02T20:44:26Z</time></trkpt><trkpt lat="59.5772457495" lon="31.2420643307"><ele>69.78</ele><time>2026-09-02T20:44:46Z</time></trkpt><trkpt lat="59.5772483479" lon="31.2420137879"><ele>70.57</ele><time>2026-09-02T20:45:15Z</time></trkpt><trkpt lat="59.5771988947" lon="31.2420351617"><ele>70.53</ele><time>2026-09-02T20:45:30Z</time></trkpt><trkpt lat="59.5771599188" lon="31.2419484928"><ele>69.11</ele><time>2026-09-02T20:45:53Z</time></trkpt><trkpt lat="59.5771649480" lon="31.2419579644"><ele>69.67</ele><time>2026-09-02T20:46:00Z</time></trkpt><trkpt lat="59.5771969669" lon="31.2420957629"><ele>70.13</ele><time>2026-09-02T20:46:21Z</time></trkpt><trkpt lat="59.5772020798" lon="31.2420633249"><ele>70.16</ele><time>2026-09-02T20:46:35Z</time></trkpt><trkpt lat="59.5771670435" lon="31.2421391811"><ele>68.94</ele><time>2026-09-02T20:46:44Z</time></trkpt><trkpt lat="59.5771457534" lon="31.2422178872"><ele>70.26</ele><time>2026-09-02T20:46:50Z</time></trkpt><trkpt lat="59.5771494415" lon="31.2424931489"><ele>70.22</ele><time>2026-09-02T20:47:11Z</time></trkpt><trkpt lat="59.5770790335" lon="31.2426498067"><ele>70.43</ele><time>2026-09-02T20:47:29Z</time></trkpt><trkpt lat="59.5769380499" lon="31.2427944783"><ele>70.35</ele><time>2026-09-02T20:47:51Z</time></trkpt><trkpt lat="59.5769234654" lon="31.2429892737"><ele>69.69</ele><time>2026-09-02T20:48:07Z</time></trkpt><trkpt lat="59.5769317634" lon="31.2432712410"><ele>68.85</ele><time>2026-09-02T20:48:29Z</time></trkpt><trkpt lat="59.5769136585" lon="31.2433346082"><ele>68.66</ele><time>2026-09-02T20:48:35Z</time></trkpt><trkpt lat="59.5768506266" lon="31.2435020786"><ele>69.05</ele><time>2026-09-02T20:48:57Z</time></trkpt><trkpt lat="59.5767931268" lon="31.2434968818"><ele>69.48</ele><time>2026-09-02T20:49:10Z</time></trkpt><trkpt lat="59.5767354593" lon="31.2434455007"><ele>68.33</ele><time>2026-09-02T20:49:41Z</time></trkpt><trkpt lat="59.5767413266" lon="31.2434905116"><ele>68.59</ele><time>2026-09-02T20:49:50Z</time></trkpt><trkpt lat="59.5766589325" lon="31.2435635179"><ele>69.73</ele><time>2026-09-02T20:50:11Z</time></trkpt><trkpt lat="59.5766016003" lon="31.2437296472"><ele>69.67</ele><time>2026-09-02T20:50:30Z</time></trkpt><trkpt lat="59.5765256602" lon="31.2438429706"><ele>69.89</ele><time>2026-09-02T20:50:46Z</time></trkpt><trkpt lat="59.5764467027" lon="31.2441047374"><ele>70.36</ele><time>2026-09-02T20:51:07Z</time></trkpt><trkpt lat="59.5763561781" lon="31.2442189828"><ele>70.85</ele><time>2026-09-02T20:51:30Z</time></trkpt><trkpt lat="59.5763178729" lon="31.2442807574"><ele>71.08</ele><time>2026-09-02T20:51:42Z</time></trkpt><trkpt lat="59.5762591157" lon="31.2442161329"><ele>70.86</ele><time>2026-09-02T20:52:10Z</time></trkpt><trkpt lat="59.5762450341" lon="31.2442658376"><ele>70.63</ele><time>2026-09-02T20:52:20Z</time></trkpt><trkpt lat="59.5762480516" lon="31.2444429472"><ele>71.39</ele><time>2026-09-02T20:52:45Z</time></trkpt><trkpt lat="59.5761773083" lon="31.2446115073"><ele>72.77</ele><time>2026-09-02T20:53:09Z</time></trkpt><trkpt lat="59.5761173777" lon="31.2447346374"><ele>74.95</ele><time>2026-09-02T20:53:24Z</time></trkpt><trkpt lat="59.5760664158" lon="31.2448908761"><ele>75.53</ele><time>2026-09-02T20:53:49Z</time></trkpt><trkpt lat="59.5760478918" lon="31.2450675666"><ele>75.13</ele><time>2026-09-02T20:54:08Z</time></trkpt><trkpt lat="59.5760388393" lon="31.2451008428"><ele>74.68</ele><time>2026-09-02T20:54:12Z</time></trkpt><trkpt lat="59.5760093350" lon="31.2452239729"><ele>74.84</ele><time>2026-09-02T20:54:23Z</time></trkpt><trkpt lat="59.5759779029" lon="31.2453366257"><ele>75.02</ele><time>2026-09-02T20:55:11Z</time></trkpt><trkpt lat="59.5759715326" lon="31.2452699058"><ele>75.11</ele><time>2026-09-02T20:55:36Z</time></trkpt><trkpt lat="59.5759959240" lon="31.2452845741"><ele>74.16</ele><time>2026-09-02T20:55:56Z</time></trkpt><trkpt lat="59.5760161243" lon="31.2452893518"><ele>73.71</ele><time>2026-09-02T20:56:27Z</time></trkpt><trkpt lat="59.5761567727" lon="31.2451805547"><ele>74.92</ele><time>2026-09-02T20:56:47Z</time></trkpt><trkpt lat="59.5762705151" lon="31.2452244759"><ele>73.19</ele><time>2026-09-02T20:57:12Z</time></trkpt><trkpt lat="59.5763065573" lon="31.2454241328"><ele>73.22</ele><time>2026-09-02T20:57:33Z</time></trkpt><trkpt lat="59.5764077269" lon="31.2456201855"><ele>70.01</ele><time>2026-09-02T20:57:55Z</time></trkpt><trkpt lat="59.5764031168" lon="31.2457405496"><ele>69.09</ele><time>2026-09-02T20:58:05Z</time></trkpt><trkpt lat="59.5764726866" lon="31.2458252907"><ele>65.46</ele><time>2026-09-02T20:58:22Z</time></trkpt><trkpt lat="59.5764790569" lon="31.2458242010"><ele>65.58</ele><time>2026-09-02T20:58:23Z</time></trkpt><trkpt lat="59.5765410829" lon="31.2459997181"><ele>66.04</ele><time>2026-09-02T20:58:42Z</time></trkpt><trkpt lat="59.5766224712" lon="31.2461656798"><ele>66.76</ele><time>2026-09-02T20:59:03Z</time></trkpt><trkpt lat="59.5766915381" lon="31.2462103553"><ele>66.33</ele><time>2026-09-02T20:59:23Z</time></trkpt><trkpt lat="59.5766973216" lon="31.2462413684"><ele>66.32</ele><time>2026-09-02T20:59:47Z</time></trkpt><trkpt lat="59.5767018478" lon="31.2462680228"><ele>66.05</ele><time>2026-09-02T20:59:50Z</time></trkpt><trkpt lat="59.5767182764" lon="31.2463111058"><ele>66.12</ele><time>2026-09-02T21:00:09Z</time></trkpt><trkpt lat="59.5766589325" lon="31.2463717069"><ele>66.22</ele><time>2026-09-02T21:00:39Z</time></trkpt><trkpt lat="59.5767416619" lon="31.2463631574"><ele>65.72</ele><time>2026-09-02T21:01:04Z</time></trkpt><trkpt lat="59.5767458528" lon="31.2465312146"><ele>64.29</ele><time>2026-09-02T21:01:23Z</time></trkpt><trkpt lat="59.5768062863" lon="31.2466889620"><ele>65.15</ele><time>2026-09-02T21:01:44Z</time></trkpt><trkpt lat="59.5768967271" lon="31.2466720305"><ele>67.88</ele><time>2026-09-02T21:02:00Z</time></trkpt><trkpt lat="59.5769200288" lon="31.2467290275"><ele>67.78</ele><time>2026-09-02T21:02:08Z</time></trkpt><trkpt lat="59.5769509580" lon="31.2468307000"><ele>68.14</ele><time>2026-09-02T21:02:22Z</time></trkpt><trkpt lat="59.5769902691" lon="31.2469353061"><ele>67.12</ele><time>2026-09-02T21:02:34Z</time></trkpt><trkpt lat="59.5770214498" lon="31.2470132578"><ele>66.26</ele><time>2026-09-02T21:02:56Z</time></trkpt><trkpt lat="59.5771239605" lon="31.2469757907"><ele>63.58</ele><time>2026-09-02T21:03:09Z</time></trkpt><trkpt lat="59.5771343540" lon="31.2471378967"><ele>64.43</ele><time>2026-09-02T21:03:30Z</time></trkpt><trkpt lat="59.5772160776" lon="31.2473765295"><ele>64.14</ele><time>2026-09-02T21:03:54Z</time></trkpt><trkpt lat="59.5773356035" lon="31.2474310957"><ele>66.13</ele><time>2026-09-02T21:04:16Z</time></trkpt><trkpt lat="59.5773821231" lon="31.2475024257"><ele>65.81</ele><time>2026-09-02T21:04:41Z</time></trkpt><trkpt lat="59.5773708075" lon="31.2474837340"><ele>66.23</ele><time>2026-09-02T21:04:55Z</time></trkpt><trkpt lat="59.5773736574" lon="31.2475946266"><ele>66.27</ele><time>2026-09-02T21:05:22Z</time></trkpt><trkpt lat="59.5773959532" lon="31.2476263940"><ele>67.58</ele><time>2026-09-02T21:05:25Z</time></trkpt><trkpt lat="59.5774932671" lon="31.2477356102"><ele>66.97</ele><time>2026-09-02T21:05:46Z</time></trkpt><trkpt lat="59.5775764156" lon="31.2478696369"><ele>67.09</ele><time>2026-09-02T21:06:06Z</time></trkpt><trkpt lat="59.5776643418" lon="31.2481361814"><ele>66.33</ele><time>2026-09-02T21:06:30Z</time></trkpt><trkpt lat="59.5777249429" lon="31.2483344972"><ele>63.62</ele><time>2026-09-02T21:06:49Z</time></trkpt><trkpt lat="59.5777355041" lon="31.2483953498"><ele>61.14</ele><time>2026-09-02T21:06:58Z</time></trkpt><trkpt lat="59.5777572971" lon="31.2485148758"><ele>59.88</ele><time>2026-09-02T21:07:11Z</time></trkpt><trkpt lat="59.5778010506" lon="31.2485968508"><ele>58.45</ele><time>2026-09-02T21:07:24Z</time></trkpt><trkpt lat="59.5778174791" lon="31.2487021275"><ele>56.73</ele><time>2026-09-02T21:07:35Z</time></trkpt><trkpt lat="59.5778489113" lon="31.2488675863"><ele>53.94</ele><time>2026-09-02T21:07:51Z</time></trkpt><trkpt lat="59.5778509229" lon="31.2489462085"><ele>52.74</ele><time>2026-09-02T21:07:57Z</time></trkpt><trkpt lat="59.5778095163" lon="31.2489406765"><ele>53.27</ele><time>2026-09-02T21:08:24Z</time></trkpt><trkpt lat="59.5778187364" lon="31.2490002718"><ele>53.35</ele><time>2026-09-02T21:08:41Z</time></trkpt><trkpt lat="59.5779235940" lon="31.2491269223"><ele>51.96</ele><time>2026-09-02T21:09:09Z</time></trkpt><trkpt lat="59.5780119393" lon="31.2492441013"><ele>51.39</ele><time>2026-09-02T21:09:30Z</time></trkpt><trkpt lat="59.5780518372" lon="31.2493305188"><ele>50.51</ele><time>2026-09-02T21:09:50Z</time></trkpt><trkpt lat="59.5780679304" lon="31.2494175229"><ele>50.46</ele><time>2026-09-02T21:10:10Z</time></trkpt><trkpt lat="59.5781087503" lon="31.2494422495"><ele>50.66</ele><time>2026-09-02T21:10:30Z</time></trkpt><trkpt lat="59.5781151205" lon="31.2495551538"><ele>50.80</ele><time>2026-09-02T21:10:45Z</time></trkpt><trkpt lat="59.5780918188" lon="31.2497216184"><ele>51.65</ele><time>2026-09-02T21:11:01Z</time></trkpt><trkpt lat="59.5781579521" lon="31.2498247996"><ele>51.17</ele><time>2026-09-02T21:11:27Z</time></trkpt><trkpt lat="59.5782515779" lon="31.2498100474"><ele>50.42</ele><time>2026-09-02T21:11:49Z</time></trkpt><trkpt lat="59.5782571938" lon="31.2498135678"><ele>50.68</ele><time>2026-09-02T21:11:53Z</time></trkpt><trkpt lat="59.5783398394" lon="31.2498073652"><ele>48.98</ele><time>2026-09-02T21:12:10Z</time></trkpt><trkpt lat="59.5783786476" lon="31.2499000691"><ele>50.54</ele><time>2026-09-02T21:12:29Z</time></trkpt><trkpt lat="59.5784006082" lon="31.2499283999"><ele>49.27</ele><time>2026-09-02T21:13:02Z</time></trkpt><trkpt lat="59.5784515701" lon="31.2499305792"><ele>50.37</ele><time>2026-09-02T21:13:26Z</time></trkpt><trkpt lat="59.5784824993" lon="31.2499475945"><ele>49.72</ele><time>2026-09-02T21:13:47Z</time></trkpt><trkpt lat="59.5784654003" lon="31.2498907652"><ele>50.02</ele><time>2026-09-02T21:14:26Z</time></trkpt><trkpt lat="59.5784923062" lon="31.2499631010"><ele>49.65</ele><time>2026-09-02T21:14:56Z</time></trkpt><trkpt lat="59.5784845948" lon="31.2500314973"><ele>50.22</ele><time>2026-09-02T21:15:27Z</time></trkpt><trkpt lat="59.5785254985" lon="31.2501239497"><ele>49.87</ele><time>2026-09-02T21:15:52Z</time></trkpt><trkpt lat="59.5784954075" lon="31.2503389455"><ele>49.06</ele><time>2026-09-02T21:16:22Z</time></trkpt><trkpt lat="59.5784881990" lon="31.2504401989"><ele>49.62</ele><time>2026-09-02T21:16:42Z</time></trkpt><trkpt lat="59.5785175357" lon="31.2505436316"><ele>49.57</ele><time>2026-09-02T21:17:03Z</time></trkpt><trkpt lat="59.5785480458" lon="31.2506367546"><ele>49.14</ele><time>2026-09-02T21:17:18Z</time></trkpt><trkpt lat="59.5786437672" lon="31.2506363355"><ele>48.69</ele><time>2026-09-02T21:17:39Z</time></trkpt><trkpt lat="59.5786980819" lon="31.2505008001"><ele>49.20</ele><time>2026-09-02T21:17:57Z</time></trkpt><trkpt lat="59.5787451044" lon="31.2504703738"><ele>48.59</ele><time>2026-09-02T21:18:10Z</time></trkpt><trkpt lat="59.5787796378" lon="31.2504807673"><ele>48.28</ele><time>2026-09-02T21:18:17Z</time></trkpt><trkpt lat="59.5787864272" lon="31.2504646741"><ele>48.90</ele><time>2026-09-02T21:18:21Z</time></trkpt><trkpt lat="59.5788401552" lon="31.2504727207"><ele>48.70</ele><time>2026-09-02T21:18:32Z</time></trkpt><trkpt lat="59.5788225532" lon="31.2505429611"><ele>49.01</ele><time>2026-09-02T21:18:40Z</time></trkpt><trkpt lat="59.5788702462" lon="31.2507752236"><ele>48.79</ele><time>2026-09-02T21:19:03Z</time></trkpt><trkpt lat="59.5789128263" lon="31.2509659957"><ele>49.14</ele><time>2026-09-02T21:19:27Z</time></trkpt><trkpt lat="59.5789606869" lon="31.2511018664"><ele>49.16</ele><time>2026-09-02T21:19:41Z</time></trkpt><trkpt lat="59.5789531432" lon="31.2512548361"><ele>49.38</ele><time>2026-09-02T21:19:57Z</time></trkpt><trkpt lat="59.5789649617" lon="31.2513310276"><ele>49.26</ele><time>2026-09-02T21:20:24Z</time></trkpt><trkpt lat="59.5789749362" lon="31.2513851747"><ele>48.83</ele><time>2026-09-02T21:20:57Z</time></trkpt><trkpt lat="59.5790312625" lon="31.2514019385"><ele>48.90</ele><time>2026-09-02T21:21:15Z</time></trkpt><trkpt lat="59.5791488606" lon="31.2514089793"><ele>48.78</ele><time>2026-09-02T21:21:35Z</time></trkpt><trkpt lat="59.5792319253" lon="31.2515192851"><ele>48.22</ele><time>2026-09-02T21:21:56Z</time></trkpt><trkpt lat="59.5792710688" lon="31.2516020983"><ele>48.39</ele><time>2026-09-02T21:22:12Z</time></trkpt><trkpt lat="59.5793090388" lon="31.2516831513"><ele>48.64</ele><time>2026-09-02T21:22:27Z</time></trkpt><trkpt lat="59.5793522894" lon="31.2518783659"><ele>48.26</ele><time>2026-09-02T21:22:47Z</time></trkpt><trkpt lat="59.5794273913" lon="31.2520804536"><ele>48.30</ele><time>2026-09-02T21:23:07Z</time></trkpt><trkpt lat="59.5794631820" lon="31.2523397896"><ele>48.14</ele><time>2026-09-02T21:23:25Z</time></trkpt><trkpt lat="59.5794865675" lon="31.2524636742"><ele>48.34</ele><time>2026-09-02T21:23:44Z</time></trkpt><trkpt lat="59.5794464182" lon="31.2524371874"><ele>47.63</ele><time>2026-09-02T21:24:17Z</time></trkpt><trkpt lat="59.5795099530" lon="31.2525533605"><ele>48.14</ele><time>2026-09-02T21:24:43Z</time></trkpt><trkpt lat="59.5795109589" lon="31.2526481599"><ele>48.01</ele><time>2026-09-02T21:25:04Z</time></trkpt><trkpt lat="59.5795167424" lon="31.2525588088"><ele>47.53</ele><time>2026-09-02T21:25:33Z</time></trkpt><trkpt lat="59.5795380324" lon="31.2525832001"><ele>46.32</ele><time>2026-09-02T21:26:24Z</time></trkpt><trkpt lat="59.5795137249" lon="31.2526069209"><ele>46.91</ele><time>2026-09-02T21:26:59Z</time></trkpt><trkpt lat="59.5794697199" lon="31.2525509298"><ele>46.21</ele><time>2026-09-02T21:27:20Z</time></trkpt><trkpt lat="59.5795145631" lon="31.2525396142"><ele>46.46</ele><time>2026-09-02T21:27:43Z</time></trkpt><trkpt lat="59.5795233641" lon="31.2525396142"><ele>46.03</ele><time>2026-09-02T21:27:45Z</time></trkpt><trkpt lat="59.5796221867" lon="31.2525573839"><ele>46.69</ele><time>2026-09-02T21:28:18Z</time></trkpt><trkpt lat="59.5796010643" lon="31.2525516003"><ele>46.22</ele><time>2026-09-02T21:28:31Z</time></trkpt><trkpt lat="59.5796105359" lon="31.2525315676"><ele>46.30</ele><time>2026-09-02T21:29:01Z</time></trkpt><trkpt lat="59.5795655251" lon="31.2525588088"><ele>46.40</ele><time>2026-09-02T21:29:28Z</time></trkpt><trkpt lat="59.5795650221" lon="31.2525468227"><ele>46.59</ele><time>2026-09-02T21:30:06Z</time></trkpt><trkpt lat="59.5795175806" lon="31.2525593955"><ele>46.70</ele><time>2026-09-02T21:30:33Z</time></trkpt><trkpt lat="59.5795797743" lon="31.2525595631"><ele>46.58</ele><time>2026-09-02T21:31:05Z</time></trkpt><trkpt lat="59.5795299858" lon="31.2525628321"><ele>46.27</ele><time>2026-09-02T21:31:36Z</time></trkpt><trkpt lat="59.5795381162" lon="31.2525391951"><ele>46.01</ele><time>2026-09-02T21:32:06Z</time></trkpt><trkpt lat="59.5795533713" lon="31.2525879778"><ele>45.96</ele><time>2026-09-02T21:32:38Z</time></trkpt><trkpt lat="59.5795250405" lon="31.2526223436"><ele>46.49</ele><time>2026-09-02T21:33:10Z</time></trkpt><trkpt lat="59.5795693807" lon="31.2525971141"><ele>46.36</ele><time>2026-09-02T21:33:37Z</time></trkpt><trkpt lat="59.5795483422" lon="31.2525886483"><ele>46.35</ele><time>2026-09-02T21:34:05Z</time></trkpt><trkpt lat="59.5795195084" lon="31.2526027299"><ele>46.54</ele><time>2026-09-02T21:35:16Z</time></trkpt><trkpt lat="59.5796075184" lon="31.2526368443"><ele>46.20</ele><time>2026-09-02T21:36:07Z</time></trkpt><trkpt lat="59.5795901679" lon="31.2525614910"><ele>46.11</ele><time>2026-09-02T21:36:45Z</time></trkpt><trkpt lat="59.5795669500" lon="31.2525060866"><ele>46.90</ele><time>2026-09-02T21:37:12Z</time></trkpt><trkpt lat="59.5795513596" lon="31.2525920849"><ele>46.55</ele><time>2026-09-02T21:37:39Z</time></trkpt><trkpt lat="59.5796538703" lon="31.2526072562"><ele>46.92</ele><time>2026-09-02T21:38:00Z</time></trkpt><trkpt lat="59.5797606558" lon="31.2527255248"><ele>46.83</ele><time>2026-09-02T21:38:21Z</time></trkpt><trkpt lat="59.5797529444" lon="31.2529204041"><ele>45.67</ele><time>2026-09-02T21:38:39Z</time></trkpt><trkpt lat="59.5797552075" lon="31.2529349048"><ele>46.93</ele><time>2026-09-02T21:38:42Z</time></trkpt><trkpt lat="59.5797394495" lon="31.2529620621"><ele>46.51</ele><time>2026-09-02T21:39:13Z</time></trkpt><trkpt lat="59.5796994679" lon="31.2529461365"><ele>46.58</ele><time>2026-09-02T21:39:45Z</time></trkpt><trkpt lat="59.5797014795" lon="31.2529678456"><ele>46.72</ele><time>2026-09-02T21:39:52Z</time></trkpt><trkpt lat="59.5797333308" lon="31.2531218212"><ele>46.58</ele><time>2026-09-02T21:40:13Z</time></trkpt><trkpt lat="59.5797193330" lon="31.2533188798"><ele>46.09</ele><time>2026-09-02T21:40:27Z</time></trkpt><trkpt lat="59.5796417166" lon="31.2535378151"><ele>46.38</ele><time>2026-09-02T21:40:48Z</time></trkpt><trkpt lat="59.5795385353" lon="31.2535737734"><ele>45.59</ele><time>2026-09-02T21:41:06Z</time></trkpt><trkpt lat="59.5794443227" lon="31.2536673993"><ele>46.26</ele><time>2026-09-02T21:41:25Z</time></trkpt><trkpt lat="59.5793421473" lon="31.2538776174"><ele>46.52</ele><time>2026-09-02T21:41:47Z</time></trkpt><trkpt lat="59.5793211088" lon="31.2540572416"><ele>46.32</ele><time>2026-09-02T21:42:07Z</time></trkpt><trkpt lat="59.5792522933" lon="31.2541761808"><ele>46.43</ele><time>2026-09-02T21:42:25Z</time></trkpt><trkpt lat="59.5791730005" lon="31.2542763446"><ele>46.36</ele><time>2026-09-02T21:42:42Z</time></trkpt><trkpt lat="59.5791372098" lon="31.2543315813"><ele>45.07</ele><time>2026-09-02T21:43:06Z</time></trkpt><trkpt lat="59.5791092981" lon="31.2543388736"><ele>45.43</ele><time>2026-09-02T21:43:38Z</time></trkpt><trkpt lat="59.5790845715" lon="31.2542479299"><ele>45.22</ele><time>2026-09-02T21:44:08Z</time></trkpt><trkpt lat="59.5792051870" lon="31.2542760093"><ele>44.89</ele><time>2026-09-02T21:44:40Z</time></trkpt><trkpt lat="59.5791854057" lon="31.2542816252"><ele>45.90</ele><time>2026-09-02T21:45:15Z</time></trkpt><trkpt lat="59.5791724138" lon="31.2542900071"><ele>45.25</ele><time>2026-09-02T21:45:33Z</time></trkpt><trkpt lat="59.5790942106" lon="31.2544573098"><ele>45.28</ele><time>2026-09-02T21:45:54Z</time></trkpt><trkpt lat="59.5790660474" lon="31.2546140514"><ele>44.79</ele><time>2026-09-02T21:46:09Z</time></trkpt><trkpt lat="59.5789968967" lon="31.2547741458"><ele>45.11</ele><time>2026-09-02T21:46:29Z</time></trkpt><trkpt lat="59.5789393969" lon="31.2548057456"><ele>43.89</ele><time>2026-09-02T21:46:41Z</time></trkpt><trkpt lat="59.5788923744" lon="31.2549500819"><ele>45.81</ele><time>2026-09-02T21:47:03Z</time></trkpt><trkpt lat="59.5788301807" lon="31.2551187258"><ele>45.00</ele><time>2026-09-02T21:47:23Z</time></trkpt><trkpt lat="59.5787432604" lon="31.2551981024"><ele>44.98</ele><time>2026-09-02T21:47:43Z</time></trkpt><trkpt lat="59.5786342956" lon="31.2552642357"><ele>44.69</ele><time>2026-09-02T21:48:02Z</time></trkpt><trkpt lat="59.5786163583" lon="31.2555104960"><ele>45.29</ele><time>2026-09-02T21:48:21Z</time></trkpt><trkpt lat="59.5785640553" lon="31.2556663156"><ele>44.73</ele><time>2026-09-02T21:48:36Z</time></trkpt><trkpt lat="59.5785378199" lon="31.2557233963"><ele>44.33</ele><time>2026-09-02T21:48:59Z</time></trkpt><trkpt lat="59.5785016101" lon="31.2556601129"><ele>44.38</ele><time>2026-09-02T21:49:26Z</time></trkpt><trkpt lat="59.5784762129" lon="31.2557233125"><ele>44.39</ele><time>2026-09-02T21:49:54Z</time></trkpt><trkpt lat="59.5784622990" lon="31.2557157688"><ele>42.86</ele><time>2026-09-02T21:49:56Z</time></trkpt><trkpt lat="59.5784588624" lon="31.2556748651"><ele>44.39</ele><time>2026-09-02T21:50:01Z</time></trkpt><trkpt lat="59.5784338005" lon="31.2555268407"><ele>44.24</ele><time>2026-09-02T21:50:22Z</time></trkpt><trkpt lat="59.5783703495" lon="31.2553606275"><ele>44.12</ele><time>2026-09-02T21:50:45Z</time></trkpt><trkpt lat="59.5782648213" lon="31.2552267686"><ele>44.03</ele><time>2026-09-02T21:51:05Z</time></trkpt><trkpt lat="59.5782151166" lon="31.2551272754"><ele>41.84</ele><time>2026-09-02T21:51:22Z</time></trkpt><trkpt lat="59.5782038011" lon="31.2550984416"><ele>43.29</ele><time>2026-09-02T21:51:27Z</time></trkpt><trkpt lat="59.5781955868" lon="31.2549820170"><ele>42.83</ele><time>2026-09-02T21:51:44Z</time></trkpt><trkpt lat="59.5781391766" lon="31.2547595613"><ele>43.54</ele><time>2026-09-02T21:52:05Z</time></trkpt><trkpt lat="59.5781078283" lon="31.2547069229"><ele>43.08</ele><time>2026-09-02T21:52:12Z</time></trkpt><trkpt lat="59.5780299604" lon="31.2546012271"><ele>44.26</ele><time>2026-09-02T21:52:32Z</time></trkpt><trkpt lat="59.5779146254" lon="31.2544906698"><ele>44.35</ele><time>2026-09-02T21:52:53Z</time></trkpt><trkpt lat="59.5778550301" lon="31.2543687969"><ele>43.95</ele><time>2026-09-02T21:53:15Z</time></trkpt><trkpt lat="59.5778748114" lon="31.2543463334"><ele>43.94</ele><time>2026-09-02T21:53:18Z</time></trkpt><trkpt lat="59.5778879710" lon="31.2543133087"><ele>44.39</ele><time>2026-09-02T21:53:37Z</time></trkpt><trkpt lat="59.5778328180" lon="31.2542950362"><ele>44.60</ele><time>2026-09-02T21:54:02Z</time></trkpt><trkpt lat="59.5777752344" lon="31.2543093693"><ele>43.60</ele><time>2026-09-02T21:54:25Z</time></trkpt><trkpt lat="59.5777362585" lon="31.2541878317"><ele>43.61</ele><time>2026-09-02T21:54:46Z</time></trkpt><trkpt lat="59.5777287986" lon="31.2541222014"><ele>43.09</ele><time>2026-09-02T21:54:56Z</time></trkpt><trkpt lat="59.5776694547" lon="31.2540167570"><ele>43.54</ele><time>2026-09-02T21:55:15Z</time></trkpt><trkpt lat="59.5776282158" lon="31.2539735902"><ele>43.75</ele><time>2026-09-02T21:55:23Z</time></trkpt><trkpt lat="59.5775740687" lon="31.2539065350"><ele>44.04</ele><time>2026-09-02T21:55:34Z</time></trkpt><trkpt lat="59.5775432233" lon="31.2537803035"><ele>43.62</ele><time>2026-09-02T21:55:47Z</time></trkpt><trkpt lat="59.5775412954" lon="31.2537182774"><ele>43.12</ele><time>2026-09-02T21:55:54Z</time></trkpt><trkpt lat="59.5775314886" lon="31.2536777090"><ele>42.97</ele><time>2026-09-02T21:55:56Z</time></trkpt><trkpt lat="59.5775284711" lon="31.2536251545"><ele>43.03</ele><time>2026-09-02T21:55:59Z</time></trkpt><trkpt lat="59.5775148086" lon="31.2536031101"><ele>43.09</ele><time>2026-09-02T21:56:03Z</time></trkpt><trkpt lat="59.5774765033" lon="31.2535223924"><ele>42.08</ele><time>2026-09-02T21:56:14Z</time></trkpt><trkpt lat="59.5773784351" lon="31.2534487154"><ele>44.86</ele><time>2026-09-02T21:56:39Z</time></trkpt><trkpt lat="59.5773673709" lon="31.2533483002"><ele>47.35</ele><time>2026-09-02T21:56:56Z</time></trkpt><trkpt lat="59.5773544628" lon="31.2532481365"><ele>48.54</ele><time>2026-09-02T21:57:10Z</time></trkpt><trkpt lat="59.5773270540" lon="31.2531443685"><ele>49.83</ele><time>2026-09-02T21:57:28Z</time></trkpt><trkpt lat="59.5774238650" lon="31.2530363258"><ele>48.98</ele><time>2026-09-02T21:58:00Z</time></trkpt><trkpt lat="59.5773755852" lon="31.2530185562"><ele>48.70</ele><time>2026-09-02T21:58:25Z</time></trkpt><trkpt lat="59.5773406327" lon="31.2528990302"><ele>48.60</ele><time>2026-09-02T21:58:41Z</time></trkpt><trkpt lat="59.5773330890" lon="31.2528969347"><ele>48.88</ele><time>2026-09-02T21:58:44Z</time></trkpt><trkpt lat="59.5772600826" lon="31.2528500799"><ele>49.85</ele><time>2026-09-02T21:58:58Z</time></trkpt><trkpt lat="59.5771222003" lon="31.2528327294"><ele>48.62</ele><time>2026-09-02T21:59:19Z</time></trkpt><trkpt lat="59.5771039277" lon="31.2528062426"><ele>48.81</ele><time>2026-09-02T21:59:27Z</time></trkpt><trkpt lat="59.5770934504" lon="31.2527687754"><ele>47.24</ele><time>2026-09-02T21:59:34Z</time></trkpt><trkpt lat="59.5770672150" lon="31.2527260277"><ele>49.33</ele><time>2026-09-02T21:59:39Z</time></trkpt><trkpt lat="59.5770564862" lon="31.2526944280"><ele>48.74</ele><time>2026-09-02T21:59:43Z</time></trkpt><trkpt lat="59.5770363696" lon="31.2526792567"><ele>49.36</ele><time>2026-09-02T21:59:45Z</time></trkpt><trkpt lat="59.5769736730" lon="31.2525443919"><ele>49.82</ele><time>2026-09-02T22:00:08Z</time></trkpt><trkpt lat="59.5767957252" lon="31.2522931863"><ele>50.98</ele><time>2026-09-02T22:00:36Z</time></trkpt><trkpt lat="59.5767541509" lon="31.2522118818"><ele>51.09</ele><time>2026-09-02T22:00:44Z</time></trkpt><trkpt lat="59.5766366366" lon="31.2521005701"><ele>51.01</ele><time>2026-09-02T22:01:07Z</time></trkpt><trkpt lat="59.5766174421" lon="31.2521049287"><ele>51.07</ele><time>2026-09-02T22:01:29Z</time></trkpt><trkpt lat="59.5765300188" lon="31.2521423958"><ele>50.76</ele><time>2026-09-02T22:02:00Z</time></trkpt><trkpt lat="59.5767493732" lon="31.2521413900"><ele>50.62</ele><time>2026-09-02T22:02:23Z</time></trkpt><trkpt lat="59.5767604373" lon="31.2521459162"><ele>50.96</ele><time>2026-09-02T22:02:25Z</time></trkpt><trkpt lat="59.5767511334" lon="31.2521030009"><ele>50.65</ele><time>2026-09-02T22:02:51Z</time></trkpt><trkpt lat="59.5767385606" lon="31.2520719040"><ele>50.65</ele><time>2026-09-02T22:02:53Z</time></trkpt><trkpt lat="59.5766914543" lon="31.2520159967"><ele>49.42</ele><time>2026-09-02T22:03:01Z</time></trkpt><trkpt lat="59.5766181964" lon="31.2519165035"><ele>48.97</ele><time>2026-09-02T22:03:19Z</time></trkpt><trkpt lat="59.5765963197" lon="31.2517710775"><ele>49.52</ele><time>2026-09-02T22:03:40Z</time></trkpt><trkpt lat="59.5764841698" lon="31.2516806368"><ele>49.11</ele><time>2026-09-02T22:04:12Z</time></trkpt><trkpt lat="59.5765228104" lon="31.2516817264"><ele>48.48</ele><time>2026-09-02T22:04:18Z</time></trkpt><trkpt lat="59.5765598584" lon="31.2516948860"><ele>48.20</ele><time>2026-09-02T22:04:23Z</time></trkpt><trkpt lat="59.5765476208" lon="31.2517851591"><ele>48.45</ele><time>2026-09-02T22:04:49Z</time></trkpt><trkpt lat="59.5765421726" lon="31.2517677248"><ele>50.36</ele><time>2026-09-02T22:04:53Z</time></trkpt><trkpt lat="59.5765312761" lon="31.2517514639"><ele>50.01</ele><time>2026-09-02T22:04:57Z</time></trkpt><trkpt lat="59.5765606128" lon="31.2517202832"><ele>50.00</ele><time>2026-09-02T22:05:00Z</time></trkpt><trkpt lat="59.5765487105" lon="31.2516535632"><ele>51.41</ele><time>2026-09-02T22:05:27Z</time></trkpt><trkpt lat="59.5764945634" lon="31.2516075466"><ele>54.47</ele><time>2026-09-02T22:05:50Z</time></trkpt><trkpt lat="59.5764430147" lon="31.2515434250"><ele>57.48</ele><time>2026-09-02T22:06:11Z</time></trkpt><trkpt lat="59.5763918851" lon="31.2515240628"><ele>58.66</ele><time>2026-09-02T22:06:25Z</time></trkpt><trkpt lat="59.5763472095" lon="31.2514704186"><ele>57.53</ele><time>2026-09-02T22:06:53Z</time></trkpt><trkpt lat="59.5764534920" lon="31.2514259946"><ele>57.59</ele><time>2026-09-02T22:07:30Z</time></trkpt><trkpt lat="59.5763451979" lon="31.2514235638"><ele>58.76</ele><time>2026-09-02T22:07:52Z</time></trkpt><trkpt lat="59.5763099939" lon="31.2514172774"><ele>58.38</ele><time>2026-09-02T22:07:55Z</time></trkpt><trkpt lat="59.5762073994" lon="31.2513386551"><ele>58.22</ele><time>2026-09-02T22:08:09Z</time></trkpt><trkpt lat="59.5761796553" lon="31.2512837537"><ele>58.44</ele><time>2026-09-02T22:08:39Z</time></trkpt><trkpt lat="59.5761891268" lon="31.2512444425"><ele>58.48</ele><time>2026-09-02T22:08:43Z</time></trkpt><trkpt lat="59.5761513244" lon="31.2510960829"><ele>60.22</ele><time>2026-09-02T22:10:27Z</time></trkpt><trkpt lat="59.5761763025" lon="31.2511392497"><ele>59.81</ele><time>2026-09-02T22:10:43Z</time></trkpt><trkpt lat="59.5761536714" lon="31.2511770520"><ele>59.68</ele><time>2026-09-02T22:10:51Z</time></trkpt><trkpt lat="59.5761378296" lon="31.2512272596"><ele>59.52</ele><time>2026-09-02T22:10:55Z</time></trkpt><trkpt lat="59.5760977641" lon="31.2511935644"><ele>59.76</ele><time>2026-09-02T22:11:07Z</time></trkpt><trkpt lat="59.5760763902" lon="31.2510555144"><ele>59.55</ele><time>2026-09-02T22:11:28Z</time></trkpt><trkpt lat="59.5761017874" lon="31.2509525008"><ele>59.47</ele><time>2026-09-02T22:11:42Z</time></trkpt><trkpt lat="59.5761019550" lon="31.2509292830"><ele>59.48</ele><time>2026-09-02T22:11:44Z</time></trkpt><trkpt lat="59.5760906395" lon="31.2508975994"><ele>59.37</ele><time>2026-09-02T22:11:47Z</time></trkpt><trkpt lat="59.5760740433" lon="31.2507348228"><ele>59.83</ele><time>2026-09-02T22:12:10Z</time></trkpt><trkpt lat="59.5760502387" lon="31.2506584637"><ele>60.04</ele><time>2026-09-02T22:12:15Z</time></trkpt><trkpt lat="59.5759636536" lon="31.2505412009"><ele>59.59</ele><time>2026-09-02T22:12:34Z</time></trkpt><trkpt lat="59.5759578701" lon="31.2505230960"><ele>59.60</ele><time>2026-09-02T22:12:36Z</time></trkpt><trkpt lat="59.5759039745" lon="31.2503319886"><ele>60.62</ele><time>2026-09-02T22:12:52Z</time></trkpt><trkpt lat="59.5758620650" lon="31.2501532026"><ele>61.06</ele><time>2026-09-02T22:13:11Z</time></trkpt><trkpt lat="59.5758474804" lon="31.2500696350"><ele>60.27</ele><time>2026-09-02T22:13:29Z</time></trkpt><trkpt lat="59.5758510847" lon="31.2500216905"><ele>60.81</ele><time>2026-09-02T22:13:54Z</time></trkpt><trkpt lat="59.5757432096" lon="31.2500837166"><ele>61.22</ele><time>2026-09-02T22:14:18Z</time></trkpt><trkpt lat="59.5757491607" lon="31.2498818804"><ele>61.98</ele><time>2026-09-02T22:14:39Z</time></trkpt><trkpt lat="59.5756638329" lon="31.2496900186"><ele>61.68</ele><time>2026-09-02T22:15:01Z</time></trkpt><trkpt lat="59.5755953528" lon="31.2496072892"><ele>62.29</ele><time>2026-09-02T22:15:24Z</time></trkpt><trkpt lat="59.5754744019" lon="31.2495108135"><ele>63.05</ele><time>2026-09-02T22:15:44Z</time></trkpt><trkpt lat="59.5754127949" lon="31.2494042795"><ele>64.64</ele><time>2026-09-02T22:16:07Z</time></trkpt><trkpt lat="59.5753902476" lon="31.2493683212"><ele>64.42</ele><time>2026-09-02T22:16:16Z</time></trkpt><trkpt lat="59.5752742421" lon="31.2492794730"><ele>65.58</ele><time>2026-09-02T22:16:35Z</time></trkpt><trkpt lat="59.5751549676" lon="31.2491865177"><ele>65.59</ele><time>2026-09-02T22:16:54Z</time></trkpt><trkpt lat="59.5750892535" lon="31.2490210589"><ele>65.87</ele><time>2026-09-02T22:17:17Z</time></trkpt><trkpt lat="59.5750848111" lon="31.2490623817"><ele>66.52</ele><time>2026-09-02T22:17:40Z</time></trkpt><trkpt lat="59.5750749204" lon="31.2489754613"><ele>67.09</ele><time>2026-09-02T22:18:09Z</time></trkpt><trkpt lat="59.5750897564" lon="31.2489922252"><ele>67.17</ele><time>2026-09-02T22:18:14Z</time></trkpt><trkpt lat="59.5750713162" lon="31.2490411755"><ele>67.19</ele><time>2026-09-02T22:18:37Z</time></trkpt><trkpt lat="59.5749921072" lon="31.2488768902"><ele>67.52</ele><time>2026-09-02T22:18:58Z</time></trkpt><trkpt lat="59.5749419834" lon="31.2487454619"><ele>68.31</ele><time>2026-09-02T22:19:21Z</time></trkpt><trkpt lat="59.5748804603" lon="31.2486044783"><ele>68.89</ele><time>2026-09-02T22:19:43Z</time></trkpt><trkpt lat="59.5748516265" lon="31.2485068291"><ele>68.91</ele><time>2026-09-02T22:20:04Z</time></trkpt><trkpt lat="59.5748037659" lon="31.2484152149"><ele>68.50</ele><time>2026-09-02T22:20:21Z</time></trkpt><trkpt lat="59.5748180151" lon="31.2483009696"><ele>67.89</ele><time>2026-09-02T22:20:34Z</time></trkpt><trkpt lat="59.5748242177" lon="31.2482873071"><ele>67.70</ele><time>2026-09-02T22:20:36Z</time></trkpt><trkpt lat="59.5748309232" lon="31.2482502591"><ele>66.05</ele><time>2026-09-02T22:20:44Z</time></trkpt><trkpt lat="59.5748256426" lon="31.2482200842"><ele>66.42</ele><time>2026-09-02T22:20:55Z</time></trkpt><trkpt lat="59.5748252235" lon="31.2481362652"><ele>67.20</ele><time>2026-09-02T22:21:20Z</time></trkpt><trkpt lat="59.5747468527" lon="31.2480671983"><ele>66.37</ele><time>2026-09-02T22:21:42Z</time></trkpt><trkpt lat="59.5746895205" lon="31.2480191700"><ele>67.01</ele><time>2026-09-02T22:22:00Z</time></trkpt><trkpt lat="59.5746246446" lon="31.2479527015"><ele>67.50</ele><time>2026-09-02T22:22:15Z</time></trkpt><trkpt lat="59.5745451842" lon="31.2478446588"><ele>67.01</ele><time>2026-09-02T22:22:43Z</time></trkpt><trkpt lat="59.5745055377" lon="31.2477493566"><ele>67.49</ele><time>2026-09-02T22:23:25Z</time></trkpt><trkpt lat="59.5744777098" lon="31.2477701437"><ele>67.50</ele><time>2026-09-02T22:23:26Z</time></trkpt><trkpt lat="59.5745026879" lon="31.2477413099"><ele>67.26</ele><time>2026-09-02T22:23:50Z</time></trkpt><trkpt lat="59.5743922144" lon="31.2478107959"><ele>67.20</ele><time>2026-09-02T22:24:12Z</time></trkpt><trkpt lat="59.5742498059" lon="31.2480191700"><ele>67.88</ele><time>2026-09-02T22:24:30Z</time></trkpt><trkpt lat="59.5742003527" lon="31.2481492572"><ele>67.19</ele><time>2026-09-02T22:24:45Z</time></trkpt><trkpt lat="59.5741794817" lon="31.2483111117"><ele>67.00</ele><time>2026-09-02T22:25:01Z</time></trkpt><trkpt lat="59.5741244126" lon="31.2486454658"><ele>67.99</ele><time>2026-09-02T22:25:23Z</time></trkpt><trkpt lat="59.5741010271" lon="31.2486733776"><ele>67.52</ele><time>2026-09-02T22:25:28Z</time></trkpt><trkpt lat="59.5739657432" lon="31.2487663329"><ele>67.20</ele><time>2026-09-02T22:25:52Z</time></trkpt><trkpt lat="59.5738519169" lon="31.2488571089"><ele>67.67</ele><time>2026-09-02T22:26:11Z</time></trkpt><trkpt lat="59.5738401823" lon="31.2489881180"><ele>68.86</ele><time>2026-09-02T22:26:35Z</time></trkpt><trkpt lat="59.5738314651" lon="31.2490380742"><ele>67.90</ele><time>2026-09-02T22:27:00Z</time></trkpt><trkpt lat="59.5738067385" lon="31.2490739487"><ele>67.26</ele><time>2026-09-02T22:27:33Z</time></trkpt><trkpt lat="59.5737692714" lon="31.2492289301"><ele>67.74</ele><time>2026-09-02T22:27:51Z</time></trkpt><trkpt lat="59.5736801717" lon="31.2494699098"><ele>67.93</ele><time>2026-09-02T22:28:12Z</time></trkpt><trkpt lat="59.5736659225" lon="31.2495986558"><ele>67.37</ele><time>2026-09-02T22:28:25Z</time></trkpt><trkpt lat="59.5736011304" lon="31.2498428207"><ele>68.96</ele><time>2026-09-02T22:28:44Z</time></trkpt><trkpt lat="59.5735069178" lon="31.2498962134"><ele>68.35</ele><time>2026-09-02T22:29:04Z</time></trkpt><trkpt lat="59.5733828656" lon="31.2498642784"><ele>68.27</ele><time>2026-09-02T22:29:26Z</time></trkpt><trkpt lat="59.5733089373" lon="31.2499097083"><ele>67.03</ele><time>2026-09-02T22:29:42Z</time></trkpt><trkpt lat="59.5732839592" lon="31.2499702256"><ele>66.75</ele><time>2026-09-02T22:29:48Z</time></trkpt><trkpt lat="59.5731806941" lon="31.2499799486"><ele>67.03</ele><time>2026-09-02T22:30:07Z</time></trkpt><trkpt lat="59.5730874874" lon="31.2501043361"><ele>66.78</ele><time>2026-09-02T22:30:28Z</time></trkpt><trkpt lat="59.5730441529" lon="31.2501400430"><ele>67.34</ele><time>2026-09-02T22:31:02Z</time></trkpt><trkpt lat="59.5730352681" lon="31.2501616683"><ele>67.03</ele><time>2026-09-02T22:31:31Z</time></trkpt><trkpt lat="59.5730925165" lon="31.2502436433"><ele>66.26</ele><time>2026-09-02T22:31:56Z</time></trkpt><trkpt lat="59.5731594879" lon="31.2503617443"><ele>66.71</ele><time>2026-09-02T22:32:14Z</time></trkpt><trkpt lat="59.5732671116" lon="31.2503985409"><ele>66.90</ele><time>2026-09-02T22:32:36Z</time></trkpt><trkpt lat="59.5733935107" lon="31.2503811065"><ele>65.80</ele><time>2026-09-02T22:32:58Z</time></trkpt><trkpt lat="59.5734074246" lon="31.2503676116"><ele>66.96</ele><time>2026-09-02T22:33:03Z</time></trkpt><trkpt lat="59.5734264515" lon="31.2502671126"><ele>67.44</ele><time>2026-09-02T22:33:12Z</time></trkpt><trkpt lat="59.5734776650" lon="31.2502716389"><ele>67.23</ele><time>2026-09-02T22:33:23Z</time></trkpt><trkpt lat="59.5735375118" lon="31.2502972875"><ele>66.83</ele><time>2026-09-02T22:33:30Z</time></trkpt><trkpt lat="59.5736202411" lon="31.2503951881"><ele>66.44</ele><time>2026-09-02T22:33:51Z</time></trkpt><trkpt lat="59.5736694429" lon="31.2505241018"><ele>64.98</ele><time>2026-09-02T22:34:11Z</time></trkpt><trkpt lat="59.5736929961" lon="31.2506677676"><ele>65.43</ele><time>2026-09-02T22:34:30Z</time></trkpt><trkpt lat="59.5736648329" lon="31.2508621439"><ele>65.74</ele><time>2026-09-02T22:34:51Z</time></trkpt><trkpt lat="59.5736894757" lon="31.2509644870"><ele>65.15</ele><time>2026-09-02T22:35:13Z</time></trkpt><trkpt lat="59.5737272780" lon="31.2510800734"><ele>64.38</ele><time>2026-09-02T22:35:35Z</time></trkpt><trkpt lat="59.5737206563" lon="31.2512168661"><ele>64.58</ele><time>2026-09-02T22:36:01Z</time></trkpt><trkpt lat="59.5736737177" lon="31.2512790598"><ele>64.73</ele><time>2026-09-02T22:36:31Z</time></trkpt><trkpt lat="59.5736734662" lon="31.2513510603"><ele>64.23</ele><time>2026-09-02T22:37:23Z</time></trkpt><trkpt lat="59.5736919902" lon="31.2513512280"><ele>62.82</ele><time>2026-09-02T22:37:34Z</time></trkpt><trkpt lat="59.5737043116" lon="31.2513929699"><ele>64.30</ele><time>2026-09-02T22:37:53Z</time></trkpt><trkpt lat="59.5737162139" lon="31.2514301855"><ele>64.30</ele><time>2026-09-02T22:37:56Z</time></trkpt><trkpt lat="59.5737427846" lon="31.2514534872"><ele>64.56</ele><time>2026-09-02T22:38:04Z</time></trkpt><trkpt lat="59.5738724526" lon="31.2515394855"><ele>64.60</ele><time>2026-09-02T22:38:27Z</time></trkpt><trkpt lat="59.5739115123" lon="31.2515728455"><ele>64.70</ele><time>2026-09-02T22:39:06Z</time></trkpt><trkpt lat="59.5738691837" lon="31.2515908666"><ele>64.50</ele><time>2026-09-02T22:39:32Z</time></trkpt><trkpt lat="59.5738814212" lon="31.2516098935"><ele>64.71</ele><time>2026-09-02T22:39:41Z</time></trkpt><trkpt lat="59.5739745442" lon="31.2515887711"><ele>64.57</ele><time>2026-09-02T22:39:59Z</time></trkpt><trkpt lat="59.5740224048" lon="31.2516513839"><ele>64.10</ele><time>2026-09-02T22:40:16Z</time></trkpt><trkpt lat="59.5740306191" lon="31.2516640406"><ele>63.90</ele><time>2026-09-02T22:40:22Z</time></trkpt><trkpt lat="59.5741229039" lon="31.2517072912"><ele>63.77</ele><time>2026-09-02T22:40:44Z</time></trkpt><trkpt lat="59.5741895400" lon="31.2518553156"><ele>63.55</ele><time>2026-09-02T22:41:02Z</time></trkpt><trkpt lat="59.5742938947" lon="31.2520178407"><ele>62.70</ele><time>2026-09-02T22:41:25Z</time></trkpt><trkpt lat="59.5743897837" lon="31.2522405479"><ele>62.71</ele><time>2026-09-02T22:41:48Z</time></trkpt><trkpt lat="59.5744264126" lon="31.2523991335"><ele>62.24</ele><time>2026-09-02T22:42:09Z</time></trkpt><trkpt lat="59.5744689927" lon="31.2525266223"><ele>61.92</ele><time>2026-09-02T22:42:27Z</time></trkpt><trkpt lat="59.5744704176" lon="31.2527824380"><ele>59.09</ele><time>2026-09-02T22:42:46Z</time></trkpt><trkpt lat="59.5744362194" lon="31.2528857868"><ele>59.30</ele><time>2026-09-02T22:43:17Z</time></trkpt><trkpt lat="59.5744995866" lon="31.2529420294"><ele>59.82</ele><time>2026-09-02T22:43:44Z</time></trkpt><trkpt lat="59.5744983293" lon="31.2529200688"><ele>59.76</ele><time>2026-09-02T22:44:10Z</time></trkpt><trkpt lat="59.5745166857" lon="31.2529481482"><ele>60.41</ele><time>2026-09-02T22:44:34Z</time></trkpt><trkpt lat="59.5745491236" lon="31.2529953383"><ele>59.91</ele><time>2026-09-02T22:44:51Z</time></trkpt><trkpt lat="59.5745615289" lon="31.2530451268"><ele>60.15</ele><time>2026-09-02T22:45:07Z</time></trkpt><trkpt lat="59.5746660512" lon="31.2530427799"><ele>61.24</ele><time>2026-09-02T22:45:25Z</time></trkpt><trkpt lat="59.5746918675" lon="31.2530638184"><ele>61.21</ele><time>2026-09-02T22:45:33Z</time></trkpt><trkpt lat="59.5748579130" lon="31.2531791534"><ele>61.84</ele><time>2026-09-02T22:45:55Z</time></trkpt><trkpt lat="59.5749148261" lon="31.2532308698"><ele>61.74</ele><time>2026-09-02T22:46:13Z</time></trkpt><trkpt lat="59.5749656204" lon="31.2533995975"><ele>61.26</ele><time>2026-09-02T22:46:34Z</time></trkpt><trkpt lat="59.5750455838" lon="31.2536397390"><ele>61.26</ele><time>2026-09-02T22:46:58Z</time></trkpt><trkpt lat="59.5750374533" lon="31.2539126538"><ele>60.66</ele><time>2026-09-02T22:47:16Z</time></trkpt><trkpt lat="59.5751094539" lon="31.2540411483"><ele>60.69</ele><time>2026-09-02T22:47:36Z</time></trkpt><trkpt lat="59.5750910137" lon="31.2541027553"><ele>61.23</ele><time>2026-09-02T22:48:07Z</time></trkpt><trkpt lat="59.5751337614" lon="31.2542331778"><ele>60.66</ele><time>2026-09-02T22:48:33Z</time></trkpt><trkpt lat="59.5752194244" lon="31.2541790307"><ele>59.60</ele><time>2026-09-02T22:48:54Z</time></trkpt><trkpt lat="59.5752656087" lon="31.2541501969"><ele>58.70</ele><time>2026-09-02T22:49:04Z</time></trkpt><trkpt lat="59.5753222704" lon="31.2541167531"><ele>58.20</ele><time>2026-09-02T22:49:15Z</time></trkpt><trkpt lat="59.5754366834" lon="31.2541463412"><ele>54.60</ele><time>2026-09-02T22:49:31Z</time></trkpt><trkpt lat="59.5755043253" lon="31.2542627659"><ele>51.91</ele><time>2026-09-02T22:49:50Z</time></trkpt><trkpt lat="59.5755180717" lon="31.2544488441"><ele>50.07</ele><time>2026-09-02T22:50:09Z</time></trkpt><trkpt lat="59.5755440556" lon="31.2545612454"><ele>48.64</ele><time>2026-09-02T22:50:20Z</time></trkpt><trkpt lat="59.5755782537" lon="31.2546775863"><ele>48.22</ele><time>2026-09-02T22:50:40Z</time></trkpt><trkpt lat="59.5755769126" lon="31.2547617406"><ele>48.45</ele><time>2026-09-02T22:51:04Z</time></trkpt><trkpt lat="59.5755569637" lon="31.2546986248"><ele>49.06</ele><time>2026-09-02T22:51:26Z</time></trkpt><trkpt lat="59.5756016392" lon="31.2546350062"><ele>49.06</ele><time>2026-09-02T22:51:45Z</time></trkpt><trkpt lat="59.5755703747" lon="31.2546832021"><ele>48.26</ele><time>2026-09-02T22:52:15Z</time></trkpt><trkpt lat="59.5755776670" lon="31.2546516024"><ele>48.43</ele><time>2026-09-02T22:52:29Z</time></trkpt><trkpt lat="59.5755967777" lon="31.2545327470"><ele>49.83</ele><time>2026-09-02T22:52:51Z</time></trkpt><trkpt lat="59.5756076742" lon="31.2544876523"><ele>49.41</ele><time>2026-09-02T22:53:02Z</time></trkpt><trkpt lat="59.5757042337" lon="31.2543978821"><ele>49.07</ele><time>2026-09-02T22:53:19Z</time></trkpt><trkpt lat="59.5757548604" lon="31.2543922663"><ele>48.37</ele><time>2026-09-02T22:53:34Z</time></trkpt><trkpt lat="59.5758677647" lon="31.2544118799"><ele>49.74</ele><time>2026-09-02T22:54:02Z</time></trkpt><trkpt lat="59.5758960117" lon="31.2545914203"><ele>50.12</ele><time>2026-09-02T22:54:22Z</time></trkpt><trkpt lat="59.5758691058" lon="31.2546346709"><ele>48.66</ele><time>2026-09-02T22:54:41Z</time></trkpt><trkpt lat="59.5759043097" lon="31.2546761613"><ele>48.97</ele><time>2026-09-02T22:55:24Z</time></trkpt><trkpt lat="59.5759095065" lon="31.2546961941"><ele>48.30</ele><time>2026-09-02T22:55:41Z</time></trkpt><trkpt lat="59.5759890508" lon="31.2547414564"><ele>49.60</ele><time>2026-09-02T22:56:45Z</time></trkpt><trkpt lat="59.5759919006" lon="31.2548539415"><ele>49.96</ele><time>2026-09-02T22:56:59Z</time></trkpt><trkpt lat="59.5760541782" lon="31.2548639998"><ele>50.93</ele><time>2026-09-02T22:57:34Z</time></trkpt><trkpt lat="59.5761039667" lon="31.2549346592"><ele>51.13</ele><time>2026-09-02T22:57:57Z</time></trkpt><trkpt lat="59.5761589520" lon="31.2549644988"><ele>49.90</ele><time>2026-09-02T22:58:07Z</time></trkpt><trkpt lat="59.5761241671" lon="31.2551015429"><ele>49.29</ele><time>2026-09-02T22:58:42Z</time></trkpt><trkpt lat="59.5761150308" lon="31.2552139442"><ele>49.99</ele><time>2026-09-02T22:59:19Z</time></trkpt><trkpt lat="59.5761133544" lon="31.2551678438"><ele>49.87</ele><time>2026-09-02T23:00:02Z</time></trkpt><trkpt lat="59.5761520788" lon="31.2551467214"><ele>49.41</ele><time>2026-09-02T23:00:32Z</time></trkpt><trkpt lat="59.5761121809" lon="31.2550889701"><ele>49.39</ele><time>2026-09-02T23:01:23Z</time></trkpt><trkpt lat="59.5761497319" lon="31.2550225016"><ele>49.98</ele><time>2026-09-02T23:01:57Z</time></trkpt><trkpt lat="59.5761137735" lon="31.2550163828"><ele>50.06</ele><time>2026-09-02T23:02:30Z</time></trkpt><trkpt lat="59.5760886278" lon="31.2551584560"><ele>49.84</ele><time>2026-09-02T23:03:02Z</time></trkpt><trkpt lat="59.5760835987" lon="31.2551788241"><ele>49.89</ele><time>2026-09-02T23:03:04Z</time></trkpt><trkpt lat="59.5760678407" lon="31.2551579531"><ele>50.25</ele><time>2026-09-02T23:03:37Z</time></trkpt><trkpt lat="59.5761315431" lon="31.2552263495"><ele>49.93</ele><time>2026-09-02T23:04:28Z</time></trkpt><trkpt lat="59.5761692617" lon="31.2550473120"><ele>48.57</ele><time>2026-09-02T23:04:50Z</time></trkpt><trkpt lat="59.5761653222" lon="31.2550611421"><ele>49.76</ele><time>2026-09-02T23:04:55Z</time></trkpt><trkpt lat="59.5761339739" lon="31.2550916523"><ele>49.49</ele><time>2026-09-02T23:05:31Z</time></trkpt><trkpt lat="59.5760038868" lon="31.2552543450"><ele>49.44</ele><time>2026-09-02T23:06:03Z</time></trkpt><trkpt lat="59.5760415215" lon="31.2551875412"><ele>48.75</ele><time>2026-09-02T23:06:35Z</time></trkpt><trkpt lat="59.5760856941" lon="31.2551756389"><ele>48.86</ele><time>2026-09-02T23:06:59Z</time></trkpt><trkpt lat="59.5760996081" lon="31.2552138604"><ele>46.87</ele><time>2026-09-02T23:07:20Z</time></trkpt><trkpt lat="59.5760921482" lon="31.2552436162"><ele>48.76</ele><time>2026-09-02T23:07:27Z</time></trkpt><trkpt lat="59.5760860294" lon="31.2552356534"><ele>49.27</ele><time>2026-09-02T23:07:32Z</time></trkpt><trkpt lat="59.5760903880" lon="31.2551888824"><ele>49.42</ele><time>2026-09-02T23:08:01Z</time></trkpt><trkpt lat="59.5760843530" lon="31.2551937439"><ele>49.27</ele><time>2026-09-02T23:08:03Z</time></trkpt><trkpt lat="59.5760279428" lon="31.2550345715"><ele>49.67</ele><time>2026-09-02T23:08:27Z</time></trkpt><trkpt lat="59.5759544335" lon="31.2548083439"><ele>48.26</ele><time>2026-09-02T23:08:47Z</time></trkpt><trkpt lat="59.5759374183" lon="31.2547707930"><ele>48.22</ele><time>2026-09-02T23:09:00Z</time></trkpt><trkpt lat="59.5759319700" lon="31.2546549551"><ele>48.09</ele><time>2026-09-02T23:09:19Z</time></trkpt><trkpt lat="59.5759382565" lon="31.2546396162"><ele>48.08</ele><time>2026-09-02T23:09:20Z</time></trkpt><trkpt lat="59.5759445429" lon="31.2545683701"><ele>47.95</ele><time>2026-09-02T23:09:27Z</time></trkpt><trkpt lat="59.5759311318" lon="31.2543932721"><ele>47.31</ele><time>2026-09-02T23:09:49Z</time></trkpt><trkpt lat="59.5758693572" lon="31.2543190923"><ele>47.98</ele><time>2026-09-02T23:10:03Z</time></trkpt><trkpt lat="59.5757924952" lon="31.2543159071"><ele>48.26</ele><time>2026-09-02T23:10:18Z</time></trkpt><trkpt lat="59.5756575465" lon="31.2544587348"><ele>48.01</ele><time>2026-09-02T23:10:39Z</time></trkpt><trkpt lat="59.5756247733" lon="31.2545474991"><ele>46.91</ele><time>2026-09-02T23:10:57Z</time></trkpt><trkpt lat="59.5755993761" lon="31.2545710523"><ele>46.58</ele><time>2026-09-02T23:11:17Z</time></trkpt><trkpt lat="59.5755033195" lon="31.2546838727"><ele>47.07</ele><time>2026-09-02T23:11:39Z</time></trkpt><trkpt lat="59.5754060894" lon="31.2548212521"><ele>47.94</ele><time>2026-09-02T23:11:59Z</time></trkpt><trkpt lat="59.5753481705" lon="31.2549813464"><ele>47.14</ele><time>2026-09-02T23:12:15Z</time></trkpt><trkpt lat="59.5752833784" lon="31.2550296262"><ele>48.56</ele><time>2026-09-02T23:12:39Z</time></trkpt><trkpt lat="59.5752304886" lon="31.2551494874"><ele>47.77</ele><time>2026-09-02T23:13:02Z</time></trkpt><trkpt lat="59.5752044208" lon="31.2552093342"><ele>47.75</ele><time>2026-09-02T23:13:27Z</time></trkpt><trkpt lat="59.5752016548" lon="31.2550822645"><ele>48.46</ele><time>2026-09-02T23:13:54Z</time></trkpt><trkpt lat="59.5751180034" lon="31.2550528441"><ele>49.67</ele><time>2026-09-02T23:14:15Z</time></trkpt><trkpt lat="59.5751123875" lon="31.2550552748"><ele>50.03</ele><time>2026-09-02T23:14:16Z</time></trkpt><trkpt lat="59.5750430692" lon="31.2551091705"><ele>49.59</ele><time>2026-09-02T23:14:28Z</time></trkpt><trkpt lat="59.5750294905" lon="31.2550950889"><ele>50.18</ele><time>2026-09-02T23:14:30Z</time></trkpt><trkpt lat="59.5749814622" lon="31.2550838571"><ele>48.43</ele><time>2026-09-02T23:14:52Z</time></trkpt><trkpt lat="59.5748931170" lon="31.2552359048"><ele>47.17</ele><time>2026-09-02T23:15:12Z</time></trkpt><trkpt lat="59.5749150775" lon="31.2553684227"><ele>46.80</ele><time>2026-09-02T23:15:32Z</time></trkpt><trkpt lat="59.5749729127" lon="31.2553848512"><ele>47.33</ele><time>2026-09-02T23:15:52Z</time></trkpt><trkpt lat="59.5749725774" lon="31.2554358132"><ele>47.37</ele><time>2026-09-02T23:16:18Z</time></trkpt><trkpt lat="59.5749940351" lon="31.2554671615"><ele>46.02</ele><time>2026-09-02T23:16:21Z</time></trkpt><trkpt lat="59.5749660395" lon="31.2555472087"><ele>46.85</ele><time>2026-09-02T23:16:43Z</time></trkpt><trkpt lat="59.5749409776" lon="31.2555307802"><ele>46.59</ele><time>2026-09-02T23:17:09Z</time></trkpt><trkpt lat="59.5749479346" lon="31.2554845959"><ele>47.10</ele><time>2026-09-02T23:17:39Z</time></trkpt><trkpt lat="59.5749047678" lon="31.2555975839"><ele>45.91</ele><time>2026-09-02T23:18:09Z</time></trkpt><trkpt lat="59.5748892613" lon="31.2555850949"><ele>46.41</ele><time>2026-09-02T23:18:36Z</time></trkpt><trkpt lat="59.5749003254" lon="31.2556279264"><ele>46.14</ele><time>2026-09-02T23:19:05Z</time></trkpt><trkpt lat="59.5748578291" lon="31.2556365598"><ele>46.92</ele><time>2026-09-02T23:19:26Z</time></trkpt><trkpt lat="59.5748398919" lon="31.2557752803"><ele>45.38</ele><time>2026-09-02T23:19:48Z</time></trkpt><trkpt lat="59.5747947972" lon="31.2559110671"><ele>46.39</ele><time>2026-09-02T23:20:04Z</time></trkpt><trkpt lat="59.5747749321" lon="31.2560374662"><ele>47.04</ele><time>2026-09-02T23:20:31Z</time></trkpt><trkpt lat="59.5747704897" lon="31.2561978959"><ele>47.52</ele><time>2026-09-02T23:20:49Z</time></trkpt><trkpt lat="59.5747968927" lon="31.2563133985"><ele>47.61</ele><time>2026-09-02T23:20:58Z</time></trkpt><trkpt lat="59.5748072024" lon="31.2565015722"><ele>47.76</ele><time>2026-09-02T23:21:18Z</time></trkpt><trkpt lat="59.5747735910" lon="31.2566674501"><ele>47.34</ele><time>2026-09-02T23:21:39Z</time></trkpt><trkpt lat="59.5747631136" lon="31.2568333279"><ele>48.07</ele><time>2026-09-02T23:21:55Z</time></trkpt><trkpt lat="59.5747342799" lon="31.2569878902"><ele>47.70</ele><time>2026-09-02T23:22:22Z</time></trkpt><trkpt lat="59.5747246407" lon="31.2571585458"><ele>46.46</ele><time>2026-09-02T23:22:39Z</time></trkpt><trkpt lat="59.5746870060" lon="31.2572929077"><ele>46.57</ele><time>2026-09-02T23:23:00Z</time></trkpt><trkpt lat="59.5746839046" lon="31.2572989427"><ele>46.58</ele><time>2026-09-02T23:23:01Z</time></trkpt><trkpt lat="59.5746790431" lon="31.2573314644"><ele>48.89</ele><time>2026-09-02T23:23:08Z</time></trkpt><trkpt lat="59.5746710803" lon="31.2573652435"><ele>48.92</ele><time>2026-09-02T23:23:27Z</time></trkpt><trkpt lat="59.5746767800" lon="31.2574838474"><ele>48.69</ele><time>2026-09-02T23:23:46Z</time></trkpt><trkpt lat="59.5746742655" lon="31.2574803270"><ele>48.81</ele><time>2026-09-02T23:24:04Z</time></trkpt><trkpt lat="59.5747586712" lon="31.2575824186"><ele>46.48</ele><time>2026-09-02T23:24:31Z</time></trkpt><trkpt lat="59.5748441666" lon="31.2576633878"><ele>46.63</ele><time>2026-09-02T23:25:11Z</time></trkpt><trkpt lat="59.5749671292" lon="31.2576909643"><ele>46.27</ele><time>2026-09-02T23:25:31Z</time></trkpt><trkpt lat="59.5751050115" lon="31.2576234899"><ele>46.12</ele><time>2026-09-02T23:25:53Z</time></trkpt><trkpt lat="59.5751959551" lon="31.2576453667"><ele>46.79</ele><time>2026-09-02T23:26:16Z</time></trkpt><trkpt lat="59.5752977114" lon="31.2577352207"><ele>46.84</ele><time>2026-09-02T23:26:36Z</time></trkpt><trkpt lat="59.5753740706" lon="31.2577462010"><ele>46.18</ele><time>2026-09-02T23:26:57Z</time></trkpt><trkpt lat="59.5753912535" lon="31.2577375676"><ele>46.20</ele><time>2026-09-02T23:27:15Z</time></trkpt><trkpt lat="59.5755044930" lon="31.2576917186"><ele>46.11</ele><time>2026-09-02T23:27:35Z</time></trkpt><trkpt lat="59.5755597297" lon="31.2578017730"><ele>46.02</ele><time>2026-09-02T23:27:52Z</time></trkpt><trkpt lat="59.5756334066" lon="31.2578026950"><ele>45.67</ele><time>2026-09-02T23:28:11Z</time></trkpt><trkpt lat="59.5756440517" lon="31.2579106539"><ele>45.32</ele><time>2026-09-02T23:28:41Z</time></trkpt><trkpt lat="59.5757166389" lon="31.2578774616"><ele>45.50</ele><time>2026-09-02T23:29:12Z</time></trkpt><trkpt lat="59.5757618174" lon="31.2577534094"><ele>45.74</ele><time>2026-09-02T23:29:35Z</time></trkpt><trkpt lat="59.5757975243" lon="31.2576709315"><ele>45.55</ele><time>2026-09-02T23:29:50Z</time></trkpt><trkpt lat="59.5758101810" lon="31.2576076481"><ele>45.29</ele><time>2026-09-02T23:30:08Z</time></trkpt><trkpt lat="59.5759436209" lon="31.2575568538"><ele>45.82</ele><time>2026-09-02T23:30:29Z</time></trkpt><trkpt lat="59.5760825928" lon="31.2574627250"><ele>44.83</ele><time>2026-09-02T23:30:49Z</time></trkpt><trkpt lat="59.5761219040" lon="31.2574500684"><ele>45.37</ele><time>2026-09-02T23:31:10Z</time></trkpt><trkpt lat="59.5761289448" lon="31.2576214783"><ele>44.97</ele><time>2026-09-02T23:31:32Z</time></trkpt><trkpt lat="59.5761525817" lon="31.2578482926"><ele>44.97</ele><time>2026-09-02T23:31:51Z</time></trkpt><trkpt lat="59.5762246661" lon="31.2579701655"><ele>45.71</ele><time>2026-09-02T23:32:07Z</time></trkpt><trkpt lat="59.5763253327" lon="31.2580592651"><ele>45.00</ele><time>2026-09-02T23:32:28Z</time></trkpt><trkpt lat="59.5764094032" lon="31.2580735143"><ele>45.42</ele><time>2026-09-02T23:32:50Z</time></trkpt><trkpt lat="59.5764840022" lon="31.2580106501"><ele>43.98</ele><time>2026-09-02T23:33:05Z</time></trkpt><trkpt lat="59.5765224751" lon="31.2578363903"><ele>44.28</ele><time>2026-09-02T23:33:24Z</time></trkpt><trkpt lat="59.5766910352" lon="31.2580124103"><ele>228.35</ele><time>2026-09-02T23:40:09Z</time></trkpt><trkpt lat="59.5766357984" lon="31.2581308465"><ele>221.74</ele><time>2026-09-02T23:40:26Z</time></trkpt><trkpt lat="59.5766390674" lon="31.2581269071"><ele>215.33</ele><time>2026-09-02T23:40:27Z</time></trkpt><trkpt lat="59.5766425040" lon="31.2581279129"><ele>209.63</ele><time>2026-09-02T23:40:28Z</time></trkpt><trkpt lat="59.5766453538" lon="31.2581270747"><ele>203.96</ele><time>2026-09-02T23:40:29Z</time></trkpt><trkpt lat="59.5766466949" lon="31.2581233867"><ele>198.45</ele><time>2026-09-02T23:40:30Z</time></trkpt><trkpt lat="59.5766499639" lon="31.2581156753"><ele>193.30</ele><time>2026-09-02T23:40:31Z</time></trkpt><trkpt lat="59.5766450185" lon="31.2581258174"><ele>187.78</ele><time>2026-09-02T23:40:32Z</time></trkpt><trkpt lat="59.5766451024" lon="31.2581259850"><ele>183.06</ele><time>2026-09-02T23:40:33Z</time></trkpt><trkpt lat="59.5766443480" lon="31.2581256498"><ele>178.32</ele><time>2026-09-02T23:40:34Z</time></trkpt><trkpt lat="59.5766520593" lon="31.2581344508"><ele>173.75</ele><time>2026-09-02T23:40:35Z</time></trkpt><trkpt lat="59.5766658895" lon="31.2581388094"><ele>169.34</ele><time>2026-09-02T23:40:36Z</time></trkpt><trkpt lat="59.5766751096" lon="31.2581466045"><ele>165.11</ele><time>2026-09-02T23:40:37Z</time></trkpt><trkpt lat="59.5766782947" lon="31.2581552379"><ele>161.04</ele><time>2026-09-02T23:40:38Z</time></trkpt><trkpt lat="59.5766814798" lon="31.2581656314"><ele>157.12</ele><time>2026-09-02T23:40:39Z</time></trkpt><trkpt lat="59.5766851678" lon="31.2581769470"><ele>153.69</ele><time>2026-09-02T23:40:40Z</time></trkpt><trkpt lat="59.5766974054" lon="31.2581813894"><ele>149.93</ele><time>2026-09-02T23:40:41Z</time></trkpt><trkpt lat="59.5767046139" lon="31.2581880111"><ele>146.92</ele><time>2026-09-02T23:40:42Z</time></trkpt><trkpt lat="59.5767140016" lon="31.2581907772"><ele>142.84</ele><time>2026-09-02T23:40:43Z</time></trkpt><trkpt lat="59.5767277479" lon="31.2581994105"><ele>136.16</ele><time>2026-09-02T23:40:45Z</time></trkpt><trkpt lat="59.5767425839" lon="31.2582051102"><ele>130.47</ele><time>2026-09-02T23:40:47Z</time></trkpt><trkpt lat="59.5767521393" lon="31.2582041044"><ele>125.07</ele><time>2026-09-02T23:40:49Z</time></trkpt><trkpt lat="59.5767564140" lon="31.2582056131"><ele>121.80</ele><time>2026-09-02T23:40:50Z</time></trkpt><trkpt lat="59.5767627005" lon="31.2581948843"><ele>116.87</ele><time>2026-09-02T23:40:52Z</time></trkpt><trkpt lat="59.5767727587" lon="31.2581927888"><ele>112.11</ele><time>2026-09-02T23:40:54Z</time></trkpt><trkpt lat="59.5767762791" lon="31.2582051102"><ele>107.45</ele><time>2026-09-02T23:40:56Z</time></trkpt><trkpt lat="59.5767845772" lon="31.2581991591"><ele>103.33</ele><time>2026-09-02T23:40:58Z</time></trkpt><trkpt lat="59.5767928753" lon="31.2581992429"><ele>98.93</ele><time>2026-09-02T23:41:00Z</time></trkpt><trkpt lat="59.5768045262" lon="31.2582003325"><ele>95.57</ele><time>2026-09-02T23:41:02Z</time></trkpt><trkpt lat="59.5768193621" lon="31.2582082953"><ele>91.74</ele><time>2026-09-02T23:41:04Z</time></trkpt><trkpt lat="59.5768317673" lon="31.2582201976"><ele>87.84</ele><time>2026-09-02T23:41:06Z</time></trkpt><trkpt lat="59.5768457651" lon="31.2582543958"><ele>83.96</ele><time>2026-09-02T23:41:09Z</time></trkpt><trkpt lat="59.5768679772" lon="31.2582606822"><ele>79.95</ele><time>2026-09-02T23:41:12Z</time></trkpt><trkpt lat="59.5768900216" lon="31.2582822237"><ele>75.82</ele><time>2026-09-02T23:41:16Z</time></trkpt><trkpt lat="59.5769040193" lon="31.2583090458"><ele>72.09</ele><time>2026-09-02T23:41:19Z</time></trkpt><trkpt lat="59.5769273210" lon="31.2583412323"><ele>67.94</ele><time>2026-09-02T23:41:23Z</time></trkpt><trkpt lat="59.5769481082" lon="31.2583628576"><ele>64.90</ele><time>2026-09-02T23:41:27Z</time></trkpt><trkpt lat="59.5769718289" lon="31.2583486084"><ele>61.33</ele><time>2026-09-02T23:41:32Z</time></trkpt><trkpt lat="59.5769967232" lon="31.2583285756"><ele>57.95</ele><time>2026-09-02T23:41:36Z</time></trkpt><trkpt lat="59.5770030934" lon="31.2582951318"><ele>55.93</ele><time>2026-09-02T23:41:39Z</time></trkpt><trkpt lat="59.5770327654" lon="31.2582543120"><ele>52.50</ele><time>2026-09-02T23:41:47Z</time></trkpt><trkpt lat="59.5770681370" lon="31.2581212074"><ele>48.74</ele><time>2026-09-02T23:41:57Z</time></trkpt><trkpt lat="59.5770948753" lon="31.2580798846"><ele>45.34</ele><time>2026-09-02T23:42:10Z</time></trkpt><trkpt lat="59.5771010779" lon="31.2580742687"><ele>42.90</ele><time>2026-09-02T23:42:39Z</time></trkpt><trkpt lat="59.5770941209" lon="31.2581989076"><ele>43.33</ele><time>2026-09-02T23:43:06Z</time></trkpt><trkpt lat="59.5770855714" lon="31.2584757619"><ele>42.88</ele><time>2026-09-02T23:43:28Z</time></trkpt><trkpt lat="59.5770573243" lon="31.2586013228"><ele>41.41</ele><time>2026-09-02T23:43:40Z</time></trkpt><trkpt lat="59.5769968070" lon="31.2589083519"><ele>43.34</ele><time>2026-09-02T23:44:00Z</time></trkpt><trkpt lat="59.5769826416" lon="31.2590064202"><ele>43.47</ele><time>2026-09-02T23:44:10Z</time></trkpt><trkpt lat="59.5769512933" lon="31.2591997907"><ele>43.13</ele><time>2026-09-02T23:44:28Z</time></trkpt><trkpt lat="59.5769150835" lon="31.2594255991"><ele>43.68</ele><time>2026-09-02T23:44:48Z</time></trkpt><trkpt lat="59.5768637862" lon="31.2595474720"><ele>43.85</ele><time>2026-09-02T23:45:07Z</time></trkpt><trkpt lat="59.5767986588" lon="31.2595124356"><ele>41.93</ele><time>2026-09-02T23:45:30Z</time></trkpt><trkpt lat="59.5766834076" lon="31.2595835142"><ele>42.91</ele><time>2026-09-02T23:45:49Z</time></trkpt><trkpt lat="59.5765945595" lon="31.2597447820"><ele>43.35</ele><time>2026-09-02T23:46:10Z</time></trkpt><trkpt lat="59.5766216330" lon="31.2599070556"><ele>42.71</ele><time>2026-09-02T23:46:26Z</time></trkpt><trkpt lat="59.5766136702" lon="31.2599415053"><ele>42.86</ele><time>2026-09-02T23:46:48Z</time></trkpt><trkpt lat="59.5766060427" lon="31.2599529047"><ele>42.49</ele><time>2026-09-02T23:47:17Z</time></trkpt><trkpt lat="59.5765889436" lon="31.2598834187"><ele>42.79</ele><time>2026-09-02T23:47:41Z</time></trkpt><trkpt lat="59.5765332039" lon="31.2597014476"><ele>42.88</ele><time>2026-09-02T23:47:59Z</time></trkpt><trkpt lat="59.5764508937" lon="31.2595942430"><ele>40.53</ele><time>2026-09-02T23:48:12Z</time></trkpt><trkpt lat="59.5764233172" lon="31.2595829275"><ele>42.55</ele><time>2026-09-02T23:48:16Z</time></trkpt><trkpt lat="59.5762829203" lon="31.2595799938"><ele>42.38</ele><time>2026-09-02T23:48:36Z</time></trkpt><trkpt lat="59.5761236642" lon="31.2595915608"><ele>42.71</ele><time>2026-09-02T23:48:55Z</time></trkpt><trkpt lat="59.5760514122" lon="31.2594871223"><ele>42.28</ele><time>2026-09-02T23:49:13Z</time></trkpt><trkpt lat="59.5759872906" lon="31.2594715320"><ele>42.55</ele><time>2026-09-02T23:49:31Z</time></trkpt><trkpt lat="59.5759799983" lon="31.2594523374"><ele>42.13</ele><time>2026-09-02T23:49:39Z</time></trkpt><trkpt lat="59.5759412739" lon="31.2592753954"><ele>42.93</ele><time>2026-09-02T23:50:02Z</time></trkpt><trkpt lat="59.5759054832" lon="31.2592312228"><ele>42.59</ele><time>2026-09-02T23:50:12Z</time></trkpt><trkpt lat="59.5758416969" lon="31.2592292950"><ele>43.12</ele><time>2026-09-02T23:50:30Z</time></trkpt><trkpt lat="59.5758421998" lon="31.2591293827"><ele>42.82</ele><time>2026-09-02T23:50:43Z</time></trkpt><trkpt lat="59.5758385118" lon="31.2591970246"><ele>42.37</ele><time>2026-09-02T23:51:13Z</time></trkpt><trkpt lat="59.5758079179" lon="31.2591795903"><ele>43.24</ele><time>2026-09-02T23:51:37Z</time></trkpt><trkpt lat="59.5756883081" lon="31.2591786683"><ele>42.54</ele><time>2026-09-02T23:51:56Z</time></trkpt><trkpt lat="59.5755521022" lon="31.2590484973"><ele>41.08</ele><time>2026-09-02T23:52:16Z</time></trkpt><trkpt lat="59.5754428022" lon="31.2589228526"><ele>41.76</ele><time>2026-09-02T23:52:32Z</time></trkpt><trkpt lat="59.5753682032" lon="31.2587806117"><ele>42.54</ele><time>2026-09-02T23:52:51Z</time></trkpt><trkpt lat="59.5753554627" lon="31.2587502692"><ele>41.99</ele><time>2026-09-02T23:52:55Z</time></trkpt><trkpt lat="59.5752848033" lon="31.2586231995"><ele>42.13</ele><time>2026-09-02T23:53:08Z</time></trkpt><trkpt lat="59.5752063487" lon="31.2585313339"><ele>42.36</ele><time>2026-09-02T23:53:14Z</time></trkpt><trkpt lat="59.5751115493" lon="31.2584372889"><ele>42.24</ele><time>2026-09-02T23:53:32Z</time></trkpt><trkpt lat="59.5750911813" lon="31.2584393006"><ele>42.54</ele><time>2026-09-02T23:53:37Z</time></trkpt><trkpt lat="59.5749278180" lon="31.2584079523"><ele>42.80</ele><time>2026-09-02T23:54:03Z</time></trkpt><trkpt lat="59.5748933684" lon="31.2584031746"><ele>42.51</ele><time>2026-09-02T23:54:31Z</time></trkpt><trkpt lat="59.5747745968" lon="31.2584228721"><ele>42.36</ele><time>2026-09-02T23:55:00Z</time></trkpt><trkpt lat="59.5747929532" lon="31.2586609181"><ele>42.99</ele><time>2026-09-02T23:55:19Z</time></trkpt><trkpt lat="59.5747549832" lon="31.2587425578"><ele>42.36</ele><time>2026-09-02T23:55:37Z</time></trkpt><trkpt lat="59.5746761095" lon="31.2585983053"><ele>41.64</ele><time>2026-09-02T23:55:57Z</time></trkpt><trkpt lat="59.5745694079" lon="31.2585456669"><ele>41.93</ele><time>2026-09-02T23:56:14Z</time></trkpt><trkpt lat="59.5745262410" lon="31.2584554777"><ele>42.17</ele><time>2026-09-02T23:56:27Z</time></trkpt><trkpt lat="59.5744675677" lon="31.2583077885"><ele>42.96</ele><time>2026-09-02T23:56:42Z</time></trkpt><trkpt lat="59.5744625386" lon="31.2582973111"><ele>43.05</ele><time>2026-09-02T23:56:43Z</time></trkpt><trkpt lat="59.5744035300" lon="31.2582142465"><ele>42.58</ele><time>2026-09-02T23:56:53Z</time></trkpt><trkpt lat="59.5742857642" lon="31.2579939701"><ele>42.21</ele><time>2026-09-02T23:57:17Z</time></trkpt><trkpt lat="59.5742605347" lon="31.2579005957"><ele>41.62</ele><time>2026-09-02T23:57:30Z</time></trkpt><trkpt lat="59.5741271786" lon="31.2579270825"><ele>41.04</ele><time>2026-09-02T23:57:55Z</time></trkpt><trkpt lat="59.5740898792" lon="31.2579669803"><ele>41.81</ele><time>2026-09-02T23:58:02Z</time></trkpt><trkpt lat="59.5740605425" lon="31.2579791341"><ele>41.52</ele><time>2026-09-02T23:58:06Z</time></trkpt><trkpt lat="59.5740341395" lon="31.2579931319"><ele>41.23</ele><time>2026-09-02T23:58:10Z</time></trkpt><trkpt lat="59.5739668328" lon="31.2580445129"><ele>41.48</ele><time>2026-09-02T23:58:31Z</time></trkpt><trkpt lat="59.5738965087" lon="31.2579591013"><ele>41.14</ele><time>2026-09-02T23:58:47Z</time></trkpt><trkpt lat="59.5739000291" lon="31.2578747794"><ele>43.19</ele><time>2026-09-02T23:59:00Z</time></trkpt><trkpt lat="59.5738944132" lon="31.2578733545"><ele>42.02</ele><time>2026-09-02T23:59:02Z</time></trkpt><trkpt lat="59.5739008673" lon="31.2576794811"><ele>41.65</ele><time>2026-09-02T23:59:23Z</time></trkpt><trkpt lat="59.5739716943" lon="31.2576746196"><ele>42.84</ele><time>2026-09-02T23:59:38Z</time></trkpt><trkpt lat="59.5738064032" lon="31.2578455266"><ele>41.33</ele><time>2026-09-02T23:59:57Z</time></trkpt><trkpt lat="59.5738067385" lon="31.2577389088"><ele>42.90</ele><time>2026-09-03T00:00:23Z</time></trkpt><trkpt lat="59.5738617238" lon="31.2575810775"><ele>43.85</ele><time>2026-09-03T00:00:41Z</time></trkpt><trkpt lat="59.5738626458" lon="31.2575695105"><ele>43.50</ele><time>2026-09-03T00:00:42Z</time></trkpt><trkpt lat="59.5738363266" lon="31.2573899701"><ele>43.16</ele><time>2026-09-03T00:01:04Z</time></trkpt><trkpt lat="59.5738105942" lon="31.2572726235"><ele>42.83</ele><time>2026-09-03T00:01:21Z</time></trkpt><trkpt lat="59.5737486519" lon="31.2571915705"><ele>42.80</ele><time>2026-09-03T00:01:41Z</time></trkpt><trkpt lat="59.5737316366" lon="31.2571126129"><ele>43.46</ele><time>2026-09-03T00:02:01Z</time></trkpt><trkpt lat="59.5737219974" lon="31.2570989504"><ele>44.13</ele><time>2026-09-03T00:02:06Z</time></trkpt><trkpt lat="59.5737237576" lon="31.2570778280"><ele>44.13</ele><time>2026-09-03T00:02:08Z</time></trkpt><trkpt lat="59.5736002922" lon="31.2571025547"><ele>43.56</ele><time>2026-09-03T00:02:26Z</time></trkpt><trkpt lat="59.5735595562" lon="31.2570481561"><ele>43.92</ele><time>2026-09-03T00:02:47Z</time></trkpt><trkpt lat="59.5735484082" lon="31.2570079230"><ele>41.99</ele><time>2026-09-03T00:02:56Z</time></trkpt><trkpt lat="59.5735148806" lon="31.2568427995"><ele>44.26</ele><time>2026-09-03T00:03:13Z</time></trkpt><trkpt lat="59.5734664332" lon="31.2567101978"><ele>44.85</ele><time>2026-09-03T00:03:31Z</time></trkpt><trkpt lat="59.5735029783" lon="31.2565023266"><ele>45.71</ele><time>2026-09-03T00:04:02Z</time></trkpt><trkpt lat="59.5734971948" lon="31.2564652786"><ele>46.07</ele><time>2026-09-03T00:04:06Z</time></trkpt><trkpt lat="59.5734259486" lon="31.2563210260"><ele>46.77</ele><time>2026-09-03T00:04:22Z</time></trkpt><trkpt lat="59.5734436344" lon="31.2562978920"><ele>46.67</ele><time>2026-09-03T00:05:02Z</time></trkpt><trkpt lat="59.5733433031" lon="31.2562112231"><ele>46.75</ele><time>2026-09-03T00:05:21Z</time></trkpt><trkpt lat="59.5733825304" lon="31.2560282461"><ele>46.26</ele><time>2026-09-03T00:05:36Z</time></trkpt><trkpt lat="59.5733898226" lon="31.2559725065"><ele>46.81</ele><time>2026-09-03T00:05:45Z</time></trkpt><trkpt lat="59.5733537804" lon="31.2558362167"><ele>47.33</ele><time>2026-09-03T00:06:06Z</time></trkpt><trkpt lat="59.5733418781" lon="31.2558197882"><ele>47.27</ele><time>2026-09-03T00:06:09Z</time></trkpt><trkpt lat="59.5733389445" lon="31.2558212969"><ele>48.41</ele><time>2026-09-03T00:06:37Z</time></trkpt><trkpt lat="59.5733014774" lon="31.2558869272"><ele>47.76</ele><time>2026-09-03T00:06:48Z</time></trkpt><trkpt lat="59.5732956938" lon="31.2557306886"><ele>49.44</ele><time>2026-09-03T00:07:56Z</time></trkpt><trkpt lat="59.5732588135" lon="31.2556909584"><ele>49.56</ele><time>2026-09-03T00:08:03Z</time></trkpt><trkpt lat="59.5732486714" lon="31.2556444388"><ele>49.26</ele><time>2026-09-03T00:08:07Z</time></trkpt><trkpt lat="59.5732783433" lon="31.2555964943"><ele>49.26</ele><time>2026-09-03T00:08:11Z</time></trkpt><trkpt lat="59.5732623339" lon="31.2555777188"><ele>50.92</ele><time>2026-09-03T00:08:13Z</time></trkpt><trkpt lat="59.5731987152" lon="31.2555152737"><ele>52.80</ele><time>2026-09-03T00:08:30Z</time></trkpt><trkpt lat="59.5731588174" lon="31.2554246653"><ele>53.54</ele><time>2026-09-03T00:08:44Z</time></trkpt><trkpt lat="59.5731173269" lon="31.2553801574"><ele>54.26</ele><time>2026-09-03T00:09:01Z</time></trkpt><trkpt lat="59.5730581507" lon="31.2552817538"><ele>53.86</ele><time>2026-09-03T00:09:17Z</time></trkpt><trkpt lat="59.5729737449" lon="31.2552820891"><ele>53.22</ele><time>2026-09-03T00:09:29Z</time></trkpt><trkpt lat="59.5728919376" lon="31.2551713642"><ele>53.30</ele><time>2026-09-03T00:09:48Z</time></trkpt><trkpt lat="59.5728262234" lon="31.2550463062"><ele>53.87</ele><time>2026-09-03T00:10:13Z</time></trkpt><trkpt lat="59.5727697294" lon="31.2549794186"><ele>53.82</ele><time>2026-09-03T00:10:28Z</time></trkpt><trkpt lat="59.5727516245" lon="31.2548992038"><ele>54.39</ele><time>2026-09-03T00:10:56Z</time></trkpt><trkpt lat="59.5727508701" lon="31.2548805960"><ele>53.53</ele><time>2026-09-03T00:11:33Z</time></trkpt><trkpt lat="59.5727671310" lon="31.2547698710"><ele>53.77</ele><time>2026-09-03T00:11:48Z</time></trkpt><trkpt lat="59.5727171749" lon="31.2547135446"><ele>53.47</ele><time>2026-09-03T00:12:13Z</time></trkpt><trkpt lat="59.5726508740" lon="31.2546474952"><ele>53.36</ele><time>2026-09-03T00:12:32Z</time></trkpt><trkpt lat="59.5726074558" lon="31.2545388658"><ele>53.81</ele><time>2026-09-03T00:12:51Z</time></trkpt><trkpt lat="59.5725968108" lon="31.2544053420"><ele>53.79</ele><time>2026-09-03T00:13:06Z</time></trkpt><trkpt lat="59.5725846570" lon="31.2543454114"><ele>54.03</ele><time>2026-09-03T00:13:16Z</time></trkpt><trkpt lat="59.5725756045" lon="31.2543218583"><ele>53.98</ele><time>2026-09-03T00:13:18Z</time></trkpt><trkpt lat="59.5724636223" lon="31.2542342674"><ele>53.89</ele><time>2026-09-03T00:13:41Z</time></trkpt><trkpt lat="59.5724002551" lon="31.2541377917"><ele>55.45</ele><time>2026-09-03T00:14:02Z</time></trkpt><trkpt lat="59.5723818988" lon="31.2540843990"><ele>55.19</ele><time>2026-09-03T00:14:10Z</time></trkpt><trkpt lat="59.5723549090" lon="31.2539819721"><ele>54.53</ele><time>2026-09-03T00:14:32Z</time></trkpt><trkpt lat="59.5723275002" lon="31.2539150845"><ele>55.54</ele><time>2026-09-03T00:14:40Z</time></trkpt><trkpt lat="59.5723064616" lon="31.2538844068"><ele>55.20</ele><time>2026-09-03T00:14:46Z</time></trkpt><trkpt lat="59.5722563379" lon="31.2538096402"><ele>55.85</ele><time>2026-09-03T00:15:05Z</time></trkpt><trkpt lat="59.5722540747" lon="31.2537101470"><ele>55.39</ele><time>2026-09-03T00:15:12Z</time></trkpt><trkpt lat="59.5722459443" lon="31.2536136713"><ele>55.55</ele><time>2026-09-03T00:15:24Z</time></trkpt><trkpt lat="59.5722054597" lon="31.2534731068"><ele>56.00</ele><time>2026-09-03T00:15:42Z</time></trkpt><trkpt lat="59.5722042024" lon="31.2534328736"><ele>56.10</ele><time>2026-09-03T00:15:49Z</time></trkpt><trkpt lat="59.5722080581" lon="31.2533496413"><ele>56.46</ele><time>2026-09-03T00:16:31Z</time></trkpt><trkpt lat="59.5722088963" lon="31.2533171196"><ele>56.41</ele><time>2026-09-03T00:16:37Z</time></trkpt><trkpt lat="59.5721564256" lon="31.2533783913"><ele>56.69</ele><time>2026-09-03T00:16:59Z</time></trkpt><trkpt lat="59.5721404161" lon="31.2534040399"><ele>56.66</ele><time>2026-09-03T00:17:02Z</time></trkpt><trkpt lat="59.5721104927" lon="31.2533898745"><ele>57.12</ele><time>2026-09-03T00:17:07Z</time></trkpt><trkpt lat="59.5720814075" lon="31.2533177901"><ele>57.72</ele><time>2026-09-03T00:17:28Z</time></trkpt><trkpt lat="59.5720714331" lon="31.2533119228"><ele>58.34</ele><time>2026-09-03T00:17:33Z</time></trkpt><trkpt lat="59.5719954930" lon="31.2532681692"><ele>58.33</ele><time>2026-09-03T00:17:53Z</time></trkpt><trkpt lat="59.5719509851" lon="31.2530957535"><ele>58.10</ele><time>2026-09-03T00:18:13Z</time></trkpt><trkpt lat="59.5719526615" lon="31.2530772295"><ele>57.18</ele><time>2026-09-03T00:18:15Z</time></trkpt><trkpt lat="59.5719126798" lon="31.2530520000"><ele>57.31</ele><time>2026-09-03T00:18:26Z</time></trkpt><trkpt lat="59.5719150268" lon="31.2529831007"><ele>58.17</ele><time>2026-09-03T00:18:32Z</time></trkpt><trkpt lat="59.5718821697" lon="31.2528718729"><ele>57.65</ele><time>2026-09-03T00:18:45Z</time></trkpt><trkpt lat="59.5717611350" lon="31.2527900655"><ele>58.15</ele><time>2026-09-03T00:19:05Z</time></trkpt><trkpt lat="59.5716696884" lon="31.2527442165"><ele>58.55</ele><time>2026-09-03T00:19:24Z</time></trkpt><trkpt lat="59.5716115180" lon="31.2527158018"><ele>58.33</ele><time>2026-09-03T00:19:32Z</time></trkpt><trkpt lat="59.5715298783" lon="31.2526677735"><ele>58.51</ele><time>2026-09-03T00:19:49Z</time></trkpt><trkpt lat="59.5714778267" lon="31.2526016403"><ele>59.44</ele><time>2026-09-03T00:19:58Z</time></trkpt><trkpt lat="59.5714810118" lon="31.2525588088"><ele>58.13</ele><time>2026-09-03T00:20:02Z</time></trkpt><trkpt lat="59.5715013798" lon="31.2524037436"><ele>58.85</ele><time>2026-09-03T00:20:17Z</time></trkpt><trkpt lat="59.5715245139" lon="31.2523233611"><ele>58.02</ele><time>2026-09-03T00:21:03Z</time></trkpt><trkpt lat="59.5715278666" lon="31.2522168271"><ele>58.46</ele><time>2026-09-03T00:21:25Z</time></trkpt><trkpt lat="59.5715325605" lon="31.2521938607"><ele>58.83</ele><time>2026-09-03T00:21:29Z</time></trkpt><trkpt lat="59.5715474803" lon="31.2521223631"><ele>59.04</ele><time>2026-09-03T00:22:05Z</time></trkpt><trkpt lat="59.5714471489" lon="31.2520171702"><ele>58.47</ele><time>2026-09-03T00:22:25Z</time></trkpt><trkpt lat="59.5713693649" lon="31.2519491091"><ele>58.37</ele><time>2026-09-03T00:22:42Z</time></trkpt><trkpt lat="59.5713441353" lon="31.2518967222"><ele>58.56</ele><time>2026-09-03T00:23:00Z</time></trkpt><trkpt lat="59.5712554548" lon="31.2517724186"><ele>60.78</ele><time>2026-09-03T00:23:22Z</time></trkpt><trkpt lat="59.5711728092" lon="31.2516066246"><ele>61.52</ele><time>2026-09-03T00:23:41Z</time></trkpt><trkpt lat="59.5710952766" lon="31.2514388189"><ele>60.25</ele><time>2026-09-03T00:24:00Z</time></trkpt><trkpt lat="59.5710822847" lon="31.2514123321"><ele>59.91</ele><time>2026-09-03T00:24:03Z</time></trkpt><trkpt lat="59.5710651018" lon="31.2513339613"><ele>60.31</ele><time>2026-09-03T00:24:12Z</time></trkpt><trkpt lat="59.5710129663" lon="31.2512500584"><ele>61.01</ele><time>2026-09-03T00:24:30Z</time></trkpt><trkpt lat="59.5710707176" lon="31.2512193806"><ele>60.86</ele><time>2026-09-03T00:24:41Z</time></trkpt><trkpt lat="59.5709287282" lon="31.2512167823"><ele>60.57</ele><time>2026-09-03T00:25:03Z</time></trkpt><trkpt lat="59.5709041692" lon="31.2511515711"><ele>60.97</ele><time>2026-09-03T00:25:34Z</time></trkpt><trkpt lat="59.5708435681" lon="31.2512188777"><ele>60.34</ele><time>2026-09-03T00:25:54Z</time></trkpt><trkpt lat="59.5708102081" lon="31.2512122560"><ele>60.64</ele><time>2026-09-03T00:26:02Z</time></trkpt><trkpt lat="59.5707210246" lon="31.2512115017"><ele>60.81</ele><time>2026-09-03T00:26:18Z</time></trkpt><trkpt lat="59.5706295781" lon="31.2511811592"><ele>61.09</ele><time>2026-09-03T00:26:35Z</time></trkpt><trkpt lat="59.5705589186" lon="31.2513070554"><ele>59.52</ele><time>2026-09-03T00:26:55Z</time></trkpt><trkpt lat="59.5704596769" lon="31.2514233124"><ele>60.20</ele><time>2026-09-03T00:27:11Z</time></trkpt><trkpt lat="59.5703231357" lon="31.2515393179"><ele>60.78</ele><time>2026-09-03T00:27:34Z</time></trkpt><trkpt lat="59.5702598523" lon="31.2516907789"><ele>60.11</ele><time>2026-09-03T00:27:52Z</time></trkpt><trkpt lat="59.5702088904" lon="31.2518080417"><ele>60.36</ele><time>2026-09-03T00:28:09Z</time></trkpt><trkpt lat="59.5701912884" lon="31.2518964708"><ele>59.62</ele><time>2026-09-03T00:28:27Z</time></trkpt><trkpt lat="59.5701224729" lon="31.2520427350"><ele>60.20</ele><time>2026-09-03T00:28:54Z</time></trkpt><trkpt lat="59.5700684935" lon="31.2519999873"><ele>59.77</ele><time>2026-09-03T00:29:34Z</time></trkpt><trkpt lat="59.5700421743" lon="31.2520974688"><ele>61.43</ele><time>2026-09-03T00:29:56Z</time></trkpt><trkpt lat="59.5699756220" lon="31.2520493567"><ele>60.81</ele><time>2026-09-03T00:30:17Z</time></trkpt><trkpt lat="59.5698633883" lon="31.2519172579"><ele>61.17</ele><time>2026-09-03T00:30:35Z</time></trkpt><trkpt lat="59.5697901305" lon="31.2518220395"><ele>62.95</ele><time>2026-09-03T00:30:53Z</time></trkpt><trkpt lat="59.5697213151" lon="31.2519056909"><ele>62.37</ele><time>2026-09-03T00:31:10Z</time></trkpt><trkpt lat="59.5696252584" lon="31.2519471813"><ele>62.62</ele><time>2026-09-03T00:31:30Z</time></trkpt><trkpt lat="59.5695558563" lon="31.2520477641"><ele>62.05</ele><time>2026-09-03T00:31:45Z</time></trkpt><trkpt lat="59.5694648288" lon="31.2520974688"><ele>61.66</ele><time>2026-09-03T00:32:04Z</time></trkpt><trkpt lat="59.5694096759" lon="31.2520536315"><ele>60.85</ele><time>2026-09-03T00:32:22Z</time></trkpt><trkpt lat="59.5693743881" lon="31.2520520389"><ele>62.09</ele><time>2026-09-03T00:32:28Z</time></trkpt><trkpt lat="59.5692939218" lon="31.2520626839"><ele>61.96</ele><time>2026-09-03T00:32:49Z</time></trkpt><trkpt lat="59.5691943448" lon="31.2521783542"><ele>62.47</ele><time>2026-09-03T00:33:08Z</time></trkpt><trkpt lat="59.5691778325" lon="31.2521858979"><ele>62.29</ele><time>2026-09-03T00:33:12Z</time></trkpt><trkpt lat="59.5690357592" lon="31.2521081138"><ele>63.18</ele><time>2026-09-03T00:33:35Z</time></trkpt><trkpt lat="59.5689650159" lon="31.2520203553"><ele>62.24</ele><time>2026-09-03T00:33:54Z</time></trkpt><trkpt lat="59.5689724758" lon="31.2518840656"><ele>62.06</ele><time>2026-09-03T00:34:09Z</time></trkpt><trkpt lat="59.5689588133" lon="31.2518905196"><ele>62.43</ele><time>2026-09-03T00:34:44Z</time></trkpt><trkpt lat="59.5688878186" lon="31.2518663798"><ele>61.68</ele><time>2026-09-03T00:35:05Z</time></trkpt><trkpt lat="59.5688264631" lon="31.2517809682"><ele>62.95</ele><time>2026-09-03T00:35:23Z</time></trkpt><trkpt lat="59.5687415544" lon="31.2516275793"><ele>64.62</ele><time>2026-09-03T00:35:43Z</time></trkpt><trkpt lat="59.5687338430" lon="31.2516330276"><ele>64.76</ele><time>2026-09-03T00:35:47Z</time></trkpt><trkpt lat="59.5686663687" lon="31.2517481111"><ele>64.11</ele><time>2026-09-03T00:36:10Z</time></trkpt><trkpt lat="59.5685842261" lon="31.2518124003"><ele>63.36</ele><time>2026-09-03T00:36:25Z</time></trkpt><trkpt lat="59.5684555639" lon="31.2518104725"><ele>62.86</ele><time>2026-09-03T00:36:44Z</time></trkpt><trkpt lat="59.5683797915" lon="31.2516677286"><ele>63.90</ele><time>2026-09-03T00:37:02Z</time></trkpt><trkpt lat="59.5682468545" lon="31.2514943071"><ele>63.84</ele><time>2026-09-03T00:37:23Z</time></trkpt><trkpt lat="59.5682229660" lon="31.2513375655"><ele>62.78</ele><time>2026-09-03T00:37:43Z</time></trkpt><trkpt lat="59.5682250615" lon="31.2512276787"><ele>63.22</ele><time>2026-09-03T00:37:57Z</time></trkpt><trkpt lat="59.5682138298" lon="31.2510732003"><ele>62.86</ele><time>2026-09-03T00:38:17Z</time></trkpt><trkpt lat="59.5681678969" lon="31.2509923987"><ele>63.01</ele><time>2026-09-03T00:38:38Z</time></trkpt><trkpt lat="59.5681564137" lon="31.2509101722"><ele>62.94</ele><time>2026-09-03T00:38:58Z</time></trkpt><trkpt lat="59.5681739319" lon="31.2509232480"><ele>63.28</ele><time>2026-09-03T00:39:22Z</time></trkpt><trkpt lat="59.5681677293" lon="31.2509480584"><ele>62.62</ele><time>2026-09-03T00:39:46Z</time></trkpt><trkpt lat="59.5682076272" lon="31.2509282771"><ele>62.79</ele><time>2026-09-03T00:40:07Z</time></trkpt><trkpt lat="59.5681652147" lon="31.2508908939"><ele>63.14</ele><time>2026-09-03T00:40:40Z</time></trkpt><trkpt lat="59.5681695733" lon="31.2509370781"><ele>63.61</ele><time>2026-09-03T00:41:14Z</time></trkpt><trkpt lat="59.5681621134" lon="31.2509191409"><ele>63.12</ele><time>2026-09-03T00:41:45Z</time></trkpt><trkpt lat="59.5682250615" lon="31.2509333901"><ele>63.51</ele><time>2026-09-03T00:42:19Z</time></trkpt><trkpt lat="59.5682362095" lon="31.2509460468"><ele>63.47</ele><time>2026-09-03T00:42:53Z</time></trkpt><trkpt lat="59.5682279952" lon="31.2509847712"><ele>63.20</ele><time>2026-09-03T00:43:23Z</time></trkpt><trkpt lat="59.5681534801" lon="31.2509256788"><ele>64.20</ele><time>2026-09-03T00:43:57Z</time></trkpt><trkpt lat="59.5681834035" lon="31.2509141956"><ele>64.56</ele><time>2026-09-03T00:44:30Z</time></trkpt><trkpt lat="59.5681916177" lon="31.2509273551"><ele>64.75</ele><time>2026-09-03T00:45:06Z</time></trkpt><trkpt lat="59.5681733452" lon="31.2509030476"><ele>64.74</ele><time>2026-09-03T00:45:47Z</time></trkpt><trkpt lat="59.5681544859" lon="31.2508966774"><ele>61.16</ele><time>2026-09-03T00:46:36Z</time></trkpt><trkpt lat="59.5681554917" lon="31.2508960906"><ele>65.28</ele><time>2026-09-03T00:46:37Z</time></trkpt><trkpt lat="59.5681552403" lon="31.2508831825"><ele>65.19</ele><time>2026-09-03T00:47:07Z</time></trkpt><trkpt lat="59.5681555755" lon="31.2509278581"><ele>64.97</ele><time>2026-09-03T00:47:40Z</time></trkpt><trkpt lat="59.5681522228" lon="31.2509152014"><ele>65.21</ele><time>2026-09-03T00:48:18Z</time></trkpt><trkpt lat="59.5681584254" lon="31.2509113457"><ele>65.27</ele><time>2026-09-03T00:49:14Z</time></trkpt><trkpt lat="59.5681532286" lon="31.2509359047"><ele>65.47</ele><time>2026-09-03T00:49:45Z</time></trkpt><trkpt lat="59.5681881811" lon="31.2508914806"><ele>65.90</ele><time>2026-09-03T00:50:15Z</time></trkpt><trkpt lat="59.5681900252" lon="31.2508907262"><ele>65.41</ele><time>2026-09-03T00:50:47Z</time></trkpt><trkpt lat="59.5681816433" lon="31.2509036344"><ele>66.08</ele><time>2026-09-03T00:51:23Z</time></trkpt><trkpt lat="59.5681777038" lon="31.2509301212"><ele>66.47</ele><time>2026-09-03T00:51:55Z</time></trkpt><trkpt lat="59.5681813918" lon="31.2509131897"><ele>66.74</ele><time>2026-09-03T00:52:24Z</time></trkpt><trkpt lat="59.5681735128" lon="31.2509235833"><ele>66.61</ele><time>2026-09-03T00:53:06Z</time></trkpt><trkpt lat="59.5681992453" lon="31.2509587873"><ele>66.42</ele><time>2026-09-03T00:53:37Z</time></trkpt><trkpt lat="59.5682064537" lon="31.2509239186"><ele>67.40</ele><time>2026-09-03T00:54:05Z</time></trkpt><trkpt lat="59.5681619458" lon="31.2509234156"><ele>66.43</ele><time>2026-09-03T00:54:35Z</time></trkpt><trkpt lat="59.5681759436" lon="31.2509068195"><ele>67.30</ele><time>2026-09-03T00:55:03Z</time></trkpt><trkpt lat="59.5681713335" lon="31.2508948334"><ele>67.16</ele><time>2026-09-03T00:55:34Z</time></trkpt><trkpt lat="59.5681583416" lon="31.2508997787"><ele>67.83</ele><time>2026-09-03T00:56:05Z</time></trkpt><trkpt lat="59.5681558270" lon="31.2509110104"><ele>67.20</ele><time>2026-09-03T00:56:34Z</time></trkpt><trkpt lat="59.5682160091" lon="31.2508927379"><ele>68.01</ele><time>2026-09-03T00:57:07Z</time></trkpt><trkpt lat="59.5682273246" lon="31.2509034667"><ele>67.18</ele><time>2026-09-03T00:57:41Z</time></trkpt><trkpt lat="59.5682272408" lon="31.2509197276"><ele>67.51</ele><time>2026-09-03T00:58:12Z</time></trkpt><trkpt lat="59.5682446752" lon="31.2509060651"><ele>67.38</ele><time>2026-09-03T00:58:45Z</time></trkpt><trkpt lat="59.5681868400" lon="31.2509105075"><ele>68.10</ele><time>2026-09-03T00:59:19Z</time></trkpt><trkpt lat="59.5681849960" lon="31.2508935761"><ele>67.16</ele><time>2026-09-03T00:59:48Z</time></trkpt><trkpt lat="59.5682134945" lon="31.2508825958"><ele>67.10</ele><time>2026-09-03T01:00:21Z</time></trkpt><trkpt lat="59.5681860019" lon="31.2509443704"><ele>67.89</ele><time>2026-09-03T01:00:55Z</time></trkpt><trkpt lat="59.5682119019" lon="31.2509186380"><ele>67.99</ele><time>2026-09-03T01:01:25Z</time></trkpt><trkpt lat="59.5682079624" lon="31.2509174645"><ele>67.37</ele><time>2026-09-03T01:01:55Z</time></trkpt><trkpt lat="59.5681891032" lon="31.2508613896"><ele>67.39</ele><time>2026-09-03T01:02:28Z</time></trkpt><trkpt lat="59.5682218764" lon="31.2508914806"><ele>66.02</ele><time>2026-09-03T01:03:00Z</time></trkpt><trkpt lat="59.5682206191" lon="31.2508801650"><ele>66.99</ele><time>2026-09-03T01:03:33Z</time></trkpt><trkpt lat="59.5681997482" lon="31.2509261817"><ele>66.52</ele><time>2026-09-03T01:04:03Z</time></trkpt></trkseg></trk></gpx>